<?xml version="1.0" encoding="UTF-8" standalone="no" ?>
<gpx xmlns="http://www.topografix.com/GPX/1/1" xmlns:xsi="http://www.w3.org/2001/XMLSchema-instance" xsi:schemaLocation="http://www.topografix.com/GPX/1/1 http://www.topografix.com/GPX/1/1/gpx.xsd" version="1.1" creator="VisuGPX - https://www.visugpx.com">
  <metadata>
    <name>GR Sud 2 facile Capanelle/Verde par GR (+Facile)</name>
  </metadata>
  <trk>
    <name><![CDATA[2015-07-28 17:54]]></name>
    <trkseg>
      <trkpt lat="42.0772" lon="9.15023">
        <ele>1601.85</ele>
        <time>2015-07-29T15:10:41Z</time>
      </trkpt>
      <trkpt lat="42.07702" lon="9.15026">
        <ele>1598.76</ele>
        <time>2015-07-29T15:10:20Z</time>
      </trkpt>
      <trkpt lat="42.07686" lon="9.15012">
        <ele>1602.76</ele>
        <time>2015-07-29T15:09:58Z</time>
      </trkpt>
      <trkpt lat="42.0767" lon="9.15002">
        <ele>1607.49</ele>
        <time>2015-07-29T15:09:36Z</time>
      </trkpt>
      <trkpt lat="42.07658" lon="9.15021">
        <ele>1599.28</ele>
        <time>2015-07-29T15:09:18Z</time>
      </trkpt>
      <trkpt lat="42.07647" lon="9.15042">
        <ele>1600.59</ele>
        <time>2015-07-29T15:09:00Z</time>
      </trkpt>
      <trkpt lat="42.07631" lon="9.15054">
        <ele>1608.99</ele>
        <time>2015-07-29T15:08:32Z</time>
      </trkpt>
      <trkpt lat="42.07623" lon="9.15076">
        <ele>1618.59</ele>
        <time>2015-07-29T15:07:42Z</time>
      </trkpt>
      <trkpt lat="42.07611" lon="9.15095">
        <ele>1624.3</ele>
        <time>2015-07-29T15:06:56Z</time>
      </trkpt>
      <trkpt lat="42.07601" lon="9.15115">
        <ele>1623.97</ele>
        <time>2015-07-29T15:06:29Z</time>
      </trkpt>
      <trkpt lat="42.07587" lon="9.15132">
        <ele>1624.26</ele>
        <time>2015-07-29T15:05:16Z</time>
      </trkpt>
      <trkpt lat="42.07581" lon="9.15155">
        <ele>1623.69</ele>
        <time>2015-07-29T15:04:10Z</time>
      </trkpt>
      <trkpt lat="42.07563" lon="9.15161">
        <ele>1631.26</ele>
        <time>2015-07-29T15:01:12Z</time>
      </trkpt>
      <trkpt lat="42.07547" lon="9.15173">
        <ele>1625.22</ele>
        <time>2015-07-29T15:00:37Z</time>
      </trkpt>
      <trkpt lat="42.07532" lon="9.15187">
        <ele>1628.32</ele>
        <time>2015-07-29T14:59:50Z</time>
      </trkpt>
      <trkpt lat="42.0752" lon="9.15206">
        <ele>1626.66</ele>
        <time>2015-07-29T14:59:32Z</time>
      </trkpt>
      <trkpt lat="42.0751" lon="9.15227">
        <ele>1616.48</ele>
        <time>2015-07-29T14:59:16Z</time>
      </trkpt>
      <trkpt lat="42.07495" lon="9.15242">
        <ele>1621.97</ele>
        <time>2015-07-29T14:59:00Z</time>
      </trkpt>
      <trkpt lat="42.07478" lon="9.1525">
        <ele>1622.51</ele>
        <time>2015-07-29T14:58:40Z</time>
      </trkpt>
      <trkpt lat="42.0746" lon="9.1526">
        <ele>1619.48</ele>
        <time>2015-07-29T14:58:04Z</time>
      </trkpt>
      <trkpt lat="42.07443" lon="9.15271">
        <ele>1619.14</ele>
        <time>2015-07-29T14:57:35Z</time>
      </trkpt>
      <trkpt lat="42.07429" lon="9.15286">
        <ele>1605.83</ele>
        <time>2015-07-29T14:56:51Z</time>
      </trkpt>
      <trkpt lat="42.07417" lon="9.15304">
        <ele>1599.47</ele>
        <time>2015-07-29T14:56:13Z</time>
      </trkpt>
      <trkpt lat="42.074" lon="9.15312">
        <ele>1588.71</ele>
        <time>2015-07-29T14:55:46Z</time>
      </trkpt>
      <trkpt lat="42.07383" lon="9.15322">
        <ele>1583.58</ele>
        <time>2015-07-29T14:55:22Z</time>
      </trkpt>
      <trkpt lat="42.07364" lon="9.15323">
        <ele>1575.76</ele>
        <time>2015-07-29T14:54:49Z</time>
      </trkpt>
      <trkpt lat="42.07357" lon="9.153">
        <ele>1570.38</ele>
        <time>2015-07-29T14:54:19Z</time>
      </trkpt>
      <trkpt lat="42.07343" lon="9.15284">
        <ele>1570.7</ele>
        <time>2015-07-29T14:53:45Z</time>
      </trkpt>
      <trkpt lat="42.0733" lon="9.15267">
        <ele>1570.76</ele>
        <time>2015-07-29T14:53:09Z</time>
      </trkpt>
      <trkpt lat="42.07319" lon="9.15248">
        <ele>1575.37</ele>
        <time>2015-07-29T14:52:40Z</time>
      </trkpt>
      <trkpt lat="42.07311" lon="9.15226">
        <ele>1565.17</ele>
        <time>2015-07-29T14:52:07Z</time>
      </trkpt>
      <trkpt lat="42.07304" lon="9.15203">
        <ele>1568.02</ele>
        <time>2015-07-29T14:51:03Z</time>
      </trkpt>
      <trkpt lat="42.07298" lon="9.15179">
        <ele>1563.48</ele>
        <time>2015-07-29T14:50:39Z</time>
      </trkpt>
      <trkpt lat="42.07287" lon="9.15159">
        <ele>1576.76</ele>
        <time>2015-07-29T14:47:30Z</time>
      </trkpt>
      <trkpt lat="42.07279" lon="9.15138">
        <ele>1578.22</ele>
        <time>2015-07-29T14:46:19Z</time>
      </trkpt>
      <trkpt lat="42.07268" lon="9.15118">
        <ele>1567.27</ele>
        <time>2015-07-29T14:45:36Z</time>
      </trkpt>
      <trkpt lat="42.0725" lon="9.15112">
        <ele>1552.85</ele>
        <time>2015-07-29T14:44:43Z</time>
      </trkpt>
      <trkpt lat="42.07231" lon="9.15108">
        <ele>1544.6</ele>
        <time>2015-07-29T14:44:12Z</time>
      </trkpt>
      <trkpt lat="42.07216" lon="9.15095">
        <ele>1554.59</ele>
        <time>2015-07-29T14:43:39Z</time>
      </trkpt>
      <trkpt lat="42.07203" lon="9.15078">
        <ele>1559.75</ele>
        <time>2015-07-29T14:43:10Z</time>
      </trkpt>
      <trkpt lat="42.07186" lon="9.15071">
        <ele>1557.83</ele>
        <time>2015-07-29T14:42:29Z</time>
      </trkpt>
      <trkpt lat="42.07177" lon="9.15049">
        <ele>1548.25</ele>
        <time>2015-07-29T14:41:48Z</time>
      </trkpt>
      <trkpt lat="42.07159" lon="9.15049">
        <ele>1542.42</ele>
        <time>2015-07-29T14:40:46Z</time>
      </trkpt>
      <trkpt lat="42.0714" lon="9.15052">
        <ele>1538.92</ele>
        <time>2015-07-29T14:40:10Z</time>
      </trkpt>
      <trkpt lat="42.07122" lon="9.15055">
        <ele>1530.33</ele>
        <time>2015-07-29T14:39:36Z</time>
      </trkpt>
      <trkpt lat="42.07107" lon="9.15068">
        <ele>1521.89</ele>
        <time>2015-07-29T14:38:32Z</time>
      </trkpt>
      <trkpt lat="42.07102" lon="9.15092">
        <ele>1520.86</ele>
        <time>2015-07-29T14:37:55Z</time>
      </trkpt>
      <trkpt lat="42.07099" lon="9.15116">
        <ele>1518.45</ele>
        <time>2015-07-29T14:37:13Z</time>
      </trkpt>
      <trkpt lat="42.07108" lon="9.15138">
        <ele>1513.78</ele>
        <time>2015-07-29T14:36:39Z</time>
      </trkpt>
      <trkpt lat="42.07115" lon="9.1516">
        <ele>1501.97</ele>
        <time>2015-07-29T14:35:57Z</time>
      </trkpt>
      <trkpt lat="42.07114" lon="9.15185">
        <ele>1499.73</ele>
        <time>2015-07-29T14:34:51Z</time>
      </trkpt>
      <trkpt lat="42.07124" lon="9.15205">
        <ele>1496.69</ele>
        <time>2015-07-29T14:33:54Z</time>
      </trkpt>
      <trkpt lat="42.07124" lon="9.1523">
        <ele>1476.93</ele>
        <time>2015-07-29T14:32:38Z</time>
      </trkpt>
      <trkpt lat="42.07133" lon="9.15251">
        <ele>1474.33</ele>
        <time>2015-07-29T14:32:01Z</time>
      </trkpt>
      <trkpt lat="42.07134" lon="9.15276">
        <ele>1474.09</ele>
        <time>2015-07-29T14:31:35Z</time>
      </trkpt>
      <trkpt lat="42.0714" lon="9.15299">
        <ele>1473.46</ele>
        <time>2015-07-29T14:31:05Z</time>
      </trkpt>
      <trkpt lat="42.07149" lon="9.15321">
        <ele>1470.9</ele>
        <time>2015-07-29T14:30:39Z</time>
      </trkpt>
      <trkpt lat="42.07153" lon="9.15345">
        <ele>1464.96</ele>
        <time>2015-07-29T14:29:54Z</time>
      </trkpt>
      <trkpt lat="42.07154" lon="9.1537">
        <ele>1461.19</ele>
        <time>2015-07-29T14:29:02Z</time>
      </trkpt>
      <trkpt lat="42.0716" lon="9.15393">
        <ele>1452.19</ele>
        <time>2015-07-29T14:28:27Z</time>
      </trkpt>
      <trkpt lat="42.07162" lon="9.15417">
        <ele>1439.99</ele>
        <time>2015-07-29T14:27:50Z</time>
      </trkpt>
      <trkpt lat="42.07155" lon="9.1544">
        <ele>1440.11</ele>
        <time>2015-07-29T14:27:15Z</time>
      </trkpt>
      <trkpt lat="42.07155" lon="9.15465">
        <ele>1436.96</ele>
        <time>2015-07-29T14:26:35Z</time>
      </trkpt>
      <trkpt lat="42.07157" lon="9.15489">
        <ele>1432.77</ele>
        <time>2015-07-29T14:26:04Z</time>
      </trkpt>
      <trkpt lat="42.0716" lon="9.15513">
        <ele>1427.43</ele>
        <time>2015-07-29T14:25:34Z</time>
      </trkpt>
      <trkpt lat="42.07165" lon="9.15536">
        <ele>1420.04</ele>
        <time>2015-07-29T14:24:45Z</time>
      </trkpt>
      <trkpt lat="42.07154" lon="9.15555">
        <ele>1422.25</ele>
        <time>2015-07-29T14:20:45Z</time>
      </trkpt>
      <trkpt lat="42.0715" lon="9.15579">
        <ele>1416.99</ele>
        <time>2015-07-29T14:16:26Z</time>
      </trkpt>
      <trkpt lat="42.07149" lon="9.15603">
        <ele>1407.73</ele>
        <time>2015-07-29T14:14:51Z</time>
      </trkpt>
      <trkpt lat="42.07152" lon="9.15628">
        <ele>1410.88</ele>
        <time>2015-07-29T14:14:32Z</time>
      </trkpt>
      <trkpt lat="42.07156" lon="9.15652">
        <ele>1402</ele>
        <time>2015-07-29T14:14:14Z</time>
      </trkpt>
      <trkpt lat="42.07158" lon="9.15677">
        <ele>1397.78</ele>
        <time>2015-07-29T14:13:07Z</time>
      </trkpt>
      <trkpt lat="42.07159" lon="9.15701">
        <ele>1391.62</ele>
        <time>2015-07-29T14:12:51Z</time>
      </trkpt>
      <trkpt lat="42.07155" lon="9.15725">
        <ele>1392.16</ele>
        <time>2015-07-29T14:12:07Z</time>
      </trkpt>
      <trkpt lat="42.07157" lon="9.1575">
        <ele>1390.96</ele>
        <time>2015-07-29T14:11:50Z</time>
      </trkpt>
      <trkpt lat="42.07159" lon="9.15774">
        <ele>1402.91</ele>
        <time>2015-07-29T14:10:59Z</time>
      </trkpt>
      <trkpt lat="42.07153" lon="9.15797">
        <ele>1389.65</ele>
        <time>2015-07-29T14:10:10Z</time>
      </trkpt>
      <trkpt lat="42.07156" lon="9.15822">
        <ele>1371.47</ele>
        <time>2015-07-29T14:09:24Z</time>
      </trkpt>
      <trkpt lat="42.0714" lon="9.15834">
        <ele>1360.93</ele>
        <time>2015-07-29T14:08:21Z</time>
      </trkpt>
      <trkpt lat="42.07126" lon="9.1585">
        <ele>1348.57</ele>
        <time>2015-07-29T14:07:04Z</time>
      </trkpt>
      <trkpt lat="42.07116" lon="9.15871">
        <ele>1359.13</ele>
        <time>2015-07-29T14:04:40Z</time>
      </trkpt>
      <trkpt lat="42.07102" lon="9.15886">
        <ele>1366.58</ele>
        <time>2015-07-29T14:04:19Z</time>
      </trkpt>
      <trkpt lat="42.07089" lon="9.15904">
        <ele>1364.49</ele>
        <time>2015-07-29T14:03:59Z</time>
      </trkpt>
      <trkpt lat="42.07076" lon="9.15922">
        <ele>1356.14</ele>
        <time>2015-07-29T14:03:42Z</time>
      </trkpt>
      <trkpt lat="42.07061" lon="9.15938">
        <ele>1351.5</ele>
        <time>2015-07-29T14:03:29Z</time>
      </trkpt>
      <trkpt lat="42.07049" lon="9.15956">
        <ele>1353.07</ele>
        <time>2015-07-29T14:03:13Z</time>
      </trkpt>
      <trkpt lat="42.07035" lon="9.15973">
        <ele>1347.83</ele>
        <time>2015-07-29T14:02:57Z</time>
      </trkpt>
      <trkpt lat="42.07025" lon="9.15993">
        <ele>1347.23</ele>
        <time>2015-07-29T14:02:39Z</time>
      </trkpt>
      <trkpt lat="42.07018" lon="9.16016">
        <ele>1350.21</ele>
        <time>2015-07-29T14:02:11Z</time>
      </trkpt>
      <trkpt lat="42.07006" lon="9.16034">
        <ele>1345.5</ele>
        <time>2015-07-29T14:01:55Z</time>
      </trkpt>
      <trkpt lat="42.06995" lon="9.16056">
        <ele>1345.57</ele>
        <time>2015-07-29T14:01:29Z</time>
      </trkpt>
      <trkpt lat="42.06996" lon="9.1608">
        <ele>1346.1</ele>
        <time>2015-07-29T14:01:12Z</time>
      </trkpt>
      <trkpt lat="42.06989" lon="9.16103">
        <ele>1347.96</ele>
        <time>2015-07-29T14:00:49Z</time>
      </trkpt>
      <trkpt lat="42.06977" lon="9.16121">
        <ele>1344.33</ele>
        <time>2015-07-29T14:00:33Z</time>
      </trkpt>
      <trkpt lat="42.06971" lon="9.16145">
        <ele>1345.57</ele>
        <time>2015-07-29T14:00:15Z</time>
      </trkpt>
      <trkpt lat="42.06959" lon="9.16164">
        <ele>1347.1</ele>
        <time>2015-07-29T14:00:00Z</time>
      </trkpt>
      <trkpt lat="42.06948" lon="9.16184">
        <ele>1340.56</ele>
        <time>2015-07-29T13:59:44Z</time>
      </trkpt>
      <trkpt lat="42.06939" lon="9.16205">
        <ele>1345.21</ele>
        <time>2015-07-29T13:59:30Z</time>
      </trkpt>
      <trkpt lat="42.06922" lon="9.16215">
        <ele>1339.43</ele>
        <time>2015-07-29T13:57:51Z</time>
      </trkpt>
      <trkpt lat="42.06904" lon="9.16213">
        <ele>1341.72</ele>
        <time>2015-07-29T13:57:32Z</time>
      </trkpt>
      <trkpt lat="42.06886" lon="9.16219">
        <ele>1352.25</ele>
        <time>2015-07-29T13:55:04Z</time>
      </trkpt>
      <trkpt lat="42.06872" lon="9.16235">
        <ele>1348.1</ele>
        <time>2015-07-29T13:54:25Z</time>
      </trkpt>
      <trkpt lat="42.06869" lon="9.1626">
        <ele>1350.91</ele>
        <time>2015-07-29T13:54:04Z</time>
      </trkpt>
      <trkpt lat="42.06865" lon="9.16285">
        <ele>1355</ele>
        <time>2015-07-29T13:53:45Z</time>
      </trkpt>
      <trkpt lat="42.06858" lon="9.16308">
        <ele>1358.98</ele>
        <time>2015-07-29T13:53:24Z</time>
      </trkpt>
      <trkpt lat="42.06849" lon="9.16328">
        <ele>1360.4</ele>
        <time>2015-07-29T13:53:04Z</time>
      </trkpt>
      <trkpt lat="42.06835" lon="9.16345">
        <ele>1359.94</ele>
        <time>2015-07-29T13:52:44Z</time>
      </trkpt>
      <trkpt lat="42.06819" lon="9.16359">
        <ele>1357.49</ele>
        <time>2015-07-29T13:52:32Z</time>
      </trkpt>
      <trkpt lat="42.06802" lon="9.16366">
        <ele>1357.86</ele>
        <time>2015-07-29T13:52:13Z</time>
      </trkpt>
      <trkpt lat="42.06787" lon="9.16381">
        <ele>1355.93</ele>
        <time>2015-07-29T13:51:57Z</time>
      </trkpt>
      <trkpt lat="42.06779" lon="9.16403">
        <ele>1360.44</ele>
        <time>2015-07-29T13:51:43Z</time>
      </trkpt>
      <trkpt lat="42.06763" lon="9.16415">
        <ele>1350.02</ele>
        <time>2015-07-29T13:51:19Z</time>
      </trkpt>
      <trkpt lat="42.06756" lon="9.16439">
        <ele>1346.15</ele>
        <time>2015-07-29T13:50:49Z</time>
      </trkpt>
      <trkpt lat="42.06754" lon="9.16464">
        <ele>1345.86</ele>
        <time>2015-07-29T13:50:27Z</time>
      </trkpt>
      <trkpt lat="42.0675" lon="9.16488">
        <ele>1336.08</ele>
        <time>2015-07-29T13:50:03Z</time>
      </trkpt>
      <trkpt lat="42.0676" lon="9.16508">
        <ele>1334.04</ele>
        <time>2015-07-29T13:49:43Z</time>
      </trkpt>
      <trkpt lat="42.06762" lon="9.16533">
        <ele>1339.85</ele>
        <time>2015-07-29T13:49:27Z</time>
      </trkpt>
      <trkpt lat="42.06759" lon="9.16558">
        <ele>1343.05</ele>
        <time>2015-07-29T13:49:06Z</time>
      </trkpt>
      <trkpt lat="42.06746" lon="9.16576">
        <ele>1349.08</ele>
        <time>2015-07-29T13:48:34Z</time>
      </trkpt>
      <trkpt lat="42.06734" lon="9.16593">
        <ele>1357.73</ele>
        <time>2015-07-29T13:48:03Z</time>
      </trkpt>
      <trkpt lat="42.06722" lon="9.16612">
        <ele>1357.79</ele>
        <time>2015-07-29T13:47:12Z</time>
      </trkpt>
      <trkpt lat="42.06718" lon="9.16636">
        <ele>1361.62</ele>
        <time>2015-07-29T13:46:34Z</time>
      </trkpt>
      <trkpt lat="42.0671" lon="9.16658">
        <ele>1358.15</ele>
        <time>2015-07-29T13:46:14Z</time>
      </trkpt>
      <trkpt lat="42.06699" lon="9.16679">
        <ele>1355.98</ele>
        <time>2015-07-29T13:45:53Z</time>
      </trkpt>
      <trkpt lat="42.06683" lon="9.16691">
        <ele>1356.25</ele>
        <time>2015-07-29T13:45:34Z</time>
      </trkpt>
      <trkpt lat="42.06667" lon="9.16702">
        <ele>1351.97</ele>
        <time>2015-07-29T13:45:16Z</time>
      </trkpt>
      <trkpt lat="42.06648" lon="9.16698">
        <ele>1352.25</ele>
        <time>2015-07-29T13:44:56Z</time>
      </trkpt>
      <trkpt lat="42.06632" lon="9.16685">
        <ele>1342.13</ele>
        <time>2015-07-29T13:44:38Z</time>
      </trkpt>
      <trkpt lat="42.06614" lon="9.16692">
        <ele>1352.89</ele>
        <time>2015-07-29T13:44:17Z</time>
      </trkpt>
      <trkpt lat="42.06598" lon="9.16702">
        <ele>1362.18</ele>
        <time>2015-07-29T13:44:00Z</time>
      </trkpt>
      <trkpt lat="42.0658" lon="9.16708">
        <ele>1356.49</ele>
        <time>2015-07-29T13:43:44Z</time>
      </trkpt>
      <trkpt lat="42.06563" lon="9.16716">
        <ele>1351.27</ele>
        <time>2015-07-29T13:43:31Z</time>
      </trkpt>
      <trkpt lat="42.06544" lon="9.16717">
        <ele>1351.04</ele>
        <time>2015-07-29T13:43:15Z</time>
      </trkpt>
      <trkpt lat="42.06525" lon="9.16714">
        <ele>1349.98</ele>
        <time>2015-07-29T13:42:54Z</time>
      </trkpt>
      <trkpt lat="42.06507" lon="9.16709">
        <ele>1342.33</ele>
        <time>2015-07-29T13:42:34Z</time>
      </trkpt>
      <trkpt lat="42.06489" lon="9.16704">
        <ele>1349.63</ele>
        <time>2015-07-29T13:42:22Z</time>
      </trkpt>
      <trkpt lat="42.0647" lon="9.16699">
        <ele>1353.4</ele>
        <time>2015-07-29T13:42:01Z</time>
      </trkpt>
      <trkpt lat="42.06452" lon="9.16695">
        <ele>1349.96</ele>
        <time>2015-07-29T13:41:42Z</time>
      </trkpt>
      <trkpt lat="42.06434" lon="9.16694">
        <ele>1350.53</ele>
        <time>2015-07-29T13:41:23Z</time>
      </trkpt>
      <trkpt lat="42.06416" lon="9.16688">
        <ele>1354.92</ele>
        <time>2015-07-29T13:41:03Z</time>
      </trkpt>
      <trkpt lat="42.06398" lon="9.16684">
        <ele>1354.71</ele>
        <time>2015-07-29T13:40:48Z</time>
      </trkpt>
      <trkpt lat="42.06383" lon="9.1667">
        <ele>1352.93</ele>
        <time>2015-07-29T13:40:31Z</time>
      </trkpt>
      <trkpt lat="42.06365" lon="9.16668">
        <ele>1359.88</ele>
        <time>2015-07-29T13:38:51Z</time>
      </trkpt>
      <trkpt lat="42.06349" lon="9.16678">
        <ele>1364.41</ele>
        <time>2015-07-29T13:38:19Z</time>
      </trkpt>
      <trkpt lat="42.0633" lon="9.1668">
        <ele>1365.35</ele>
        <time>2015-07-29T13:38:04Z</time>
      </trkpt>
      <trkpt lat="42.06311" lon="9.16683">
        <ele>1369.62</ele>
        <time>2015-07-29T13:37:39Z</time>
      </trkpt>
      <trkpt lat="42.06294" lon="9.16676">
        <ele>1365.18</ele>
        <time>2015-07-29T13:37:20Z</time>
      </trkpt>
      <trkpt lat="42.06276" lon="9.1668">
        <ele>1360.37</ele>
        <time>2015-07-29T13:36:35Z</time>
      </trkpt>
      <trkpt lat="42.06261" lon="9.16694">
        <ele>1365.85</ele>
        <time>2015-07-29T13:36:20Z</time>
      </trkpt>
      <trkpt lat="42.06243" lon="9.16702">
        <ele>1362.39</ele>
        <time>2015-07-29T13:36:06Z</time>
      </trkpt>
      <trkpt lat="42.06231" lon="9.16721">
        <ele>1366.55</ele>
        <time>2015-07-29T13:35:34Z</time>
      </trkpt>
      <trkpt lat="42.06221" lon="9.16742">
        <ele>1372.21</ele>
        <time>2015-07-29T13:35:17Z</time>
      </trkpt>
      <trkpt lat="42.06209" lon="9.16763">
        <ele>1378.87</ele>
        <time>2015-07-29T13:35:00Z</time>
      </trkpt>
      <trkpt lat="42.0619" lon="9.16761">
        <ele>1379.56</ele>
        <time>2015-07-29T13:34:44Z</time>
      </trkpt>
      <trkpt lat="42.06172" lon="9.16753">
        <ele>1381.72</ele>
        <time>2015-07-29T13:34:30Z</time>
      </trkpt>
      <trkpt lat="42.06154" lon="9.16746">
        <ele>1389.68</ele>
        <time>2015-07-29T13:34:14Z</time>
      </trkpt>
      <trkpt lat="42.06137" lon="9.16738">
        <ele>1386.61</ele>
        <time>2015-07-29T13:33:55Z</time>
      </trkpt>
      <trkpt lat="42.06121" lon="9.16723">
        <ele>1390.46</ele>
        <time>2015-07-29T13:33:39Z</time>
      </trkpt>
      <trkpt lat="42.06106" lon="9.16708">
        <ele>1387.38</ele>
        <time>2015-07-29T13:33:23Z</time>
      </trkpt>
      <trkpt lat="42.06088" lon="9.1671">
        <ele>1379.15</ele>
        <time>2015-07-29T13:32:49Z</time>
      </trkpt>
      <trkpt lat="42.06074" lon="9.16727">
        <ele>1382.29</ele>
        <time>2015-07-29T13:32:34Z</time>
      </trkpt>
      <trkpt lat="42.06056" lon="9.16733">
        <ele>1386.13</ele>
        <time>2015-07-29T13:32:15Z</time>
      </trkpt>
      <trkpt lat="42.06037" lon="9.16732">
        <ele>1387</ele>
        <time>2015-07-29T13:31:32Z</time>
      </trkpt>
      <trkpt lat="42.06024" lon="9.16749">
        <ele>1383.06</ele>
        <time>2015-07-29T13:31:16Z</time>
      </trkpt>
      <trkpt lat="42.06014" lon="9.1677">
        <ele>1381.47</ele>
        <time>2015-07-29T13:30:58Z</time>
      </trkpt>
      <trkpt lat="42.06011" lon="9.16795">
        <ele>1381.71</ele>
        <time>2015-07-29T13:30:44Z</time>
      </trkpt>
      <trkpt lat="42.06" lon="9.16814">
        <ele>1382.06</ele>
        <time>2015-07-29T13:30:31Z</time>
      </trkpt>
      <trkpt lat="42.05985" lon="9.16828">
        <ele>1386.62</ele>
        <time>2015-07-29T13:29:56Z</time>
      </trkpt>
      <trkpt lat="42.05969" lon="9.16817">
        <ele>1390.47</ele>
        <time>2015-07-29T13:29:09Z</time>
      </trkpt>
      <trkpt lat="42.05964" lon="9.16791">
        <ele>1390.96</ele>
        <time>2015-07-29T13:28:49Z</time>
      </trkpt>
      <trkpt lat="42.05959" lon="9.16767">
        <ele>1392.43</ele>
        <time>2015-07-29T13:28:31Z</time>
      </trkpt>
      <trkpt lat="42.05951" lon="9.16745">
        <ele>1399.63</ele>
        <time>2015-07-29T13:27:59Z</time>
      </trkpt>
      <trkpt lat="42.05948" lon="9.1672">
        <ele>1401.39</ele>
        <time>2015-07-29T13:27:38Z</time>
      </trkpt>
      <trkpt lat="42.05937" lon="9.16701">
        <ele>1408.41</ele>
        <time>2015-07-29T13:27:08Z</time>
      </trkpt>
      <trkpt lat="42.05927" lon="9.16681">
        <ele>1410.16</ele>
        <time>2015-07-29T13:26:50Z</time>
      </trkpt>
      <trkpt lat="42.0591" lon="9.16673">
        <ele>1418.51</ele>
        <time>2015-07-29T13:26:37Z</time>
      </trkpt>
      <trkpt lat="42.05898" lon="9.16653">
        <ele>1425.09</ele>
        <time>2015-07-29T13:26:14Z</time>
      </trkpt>
      <trkpt lat="42.05893" lon="9.16629">
        <ele>1418.79</ele>
        <time>2015-07-29T13:25:57Z</time>
      </trkpt>
      <trkpt lat="42.0588" lon="9.1661">
        <ele>1423.1</ele>
        <time>2015-07-29T13:25:45Z</time>
      </trkpt>
      <trkpt lat="42.05871" lon="9.16588">
        <ele>1425.08</ele>
        <time>2015-07-29T13:25:05Z</time>
      </trkpt>
      <trkpt lat="42.05866" lon="9.16564">
        <ele>1424.55</ele>
        <time>2015-07-29T13:24:49Z</time>
      </trkpt>
      <trkpt lat="42.05856" lon="9.16541">
        <ele>1429.88</ele>
        <time>2015-07-29T13:24:36Z</time>
      </trkpt>
      <trkpt lat="42.05847" lon="9.1652">
        <ele>1431.54</ele>
        <time>2015-07-29T13:24:17Z</time>
      </trkpt>
      <trkpt lat="42.05835" lon="9.16499">
        <ele>1432.34</ele>
        <time>2015-07-29T13:24:07Z</time>
      </trkpt>
      <trkpt lat="42.05824" lon="9.16478">
        <ele>1432.82</ele>
        <time>2015-07-29T13:23:56Z</time>
      </trkpt>
      <trkpt lat="42.05811" lon="9.16459">
        <ele>1436.69</ele>
        <time>2015-07-29T13:23:01Z</time>
      </trkpt>
      <trkpt lat="42.05801" lon="9.16439">
        <ele>1442.87</ele>
        <time>2015-07-29T13:22:40Z</time>
      </trkpt>
      <trkpt lat="42.05796" lon="9.16414">
        <ele>1442.97</ele>
        <time>2015-07-29T13:22:26Z</time>
      </trkpt>
      <trkpt lat="42.05795" lon="9.1639">
        <ele>1438.84</ele>
        <time>2015-07-29T13:22:00Z</time>
      </trkpt>
      <trkpt lat="42.05786" lon="9.16368">
        <ele>1442.96</ele>
        <time>2015-07-29T13:21:42Z</time>
      </trkpt>
      <trkpt lat="42.05776" lon="9.16345">
        <ele>1445.42</ele>
        <time>2015-07-29T13:21:23Z</time>
      </trkpt>
      <trkpt lat="42.05762" lon="9.16331">
        <ele>1447.4</ele>
        <time>2015-07-29T13:21:01Z</time>
      </trkpt>
      <trkpt lat="42.05749" lon="9.16314">
        <ele>1447.45</ele>
        <time>2015-07-29T13:20:34Z</time>
      </trkpt>
      <trkpt lat="42.05739" lon="9.16292">
        <ele>1449.05</ele>
        <time>2015-07-29T13:20:15Z</time>
      </trkpt>
      <trkpt lat="42.05727" lon="9.16273">
        <ele>1447.66</ele>
        <time>2015-07-29T13:19:39Z</time>
      </trkpt>
      <trkpt lat="42.05718" lon="9.16251">
        <ele>1452.64</ele>
        <time>2015-07-29T13:19:12Z</time>
      </trkpt>
      <trkpt lat="42.05712" lon="9.16228">
        <ele>1456.72</ele>
        <time>2015-07-29T13:18:52Z</time>
      </trkpt>
      <trkpt lat="42.05701" lon="9.16209">
        <ele>1458.93</ele>
        <time>2015-07-29T13:18:31Z</time>
      </trkpt>
      <trkpt lat="42.05686" lon="9.16196">
        <ele>1461.78</ele>
        <time>2015-07-29T13:18:12Z</time>
      </trkpt>
      <trkpt lat="42.05676" lon="9.16175">
        <ele>1462.59</ele>
        <time>2015-07-29T13:17:52Z</time>
      </trkpt>
      <trkpt lat="42.05666" lon="9.16154">
        <ele>1461.71</ele>
        <time>2015-07-29T13:17:29Z</time>
      </trkpt>
      <trkpt lat="42.05654" lon="9.16137">
        <ele>1463.4</ele>
        <time>2015-07-29T13:17:05Z</time>
      </trkpt>
      <trkpt lat="42.05636" lon="9.16128">
        <ele>1465.47</ele>
        <time>2015-07-29T13:16:28Z</time>
      </trkpt>
      <trkpt lat="42.05624" lon="9.16146">
        <ele>1460.17</ele>
        <time>2015-07-29T13:15:47Z</time>
      </trkpt>
      <trkpt lat="42.05609" lon="9.1616">
        <ele>1453.47</ele>
        <time>2015-07-29T13:02:11Z</time>
      </trkpt>
      <trkpt lat="42.05609" lon="9.16164">
        <ele>1454.59</ele>
        <time>2015-07-29T12:58:58Z</time>
      </trkpt>
      <trkpt lat="42.056" lon="9.16185">
        <ele>1464.64</ele>
        <time>2015-07-29T12:58:06Z</time>
      </trkpt>
      <trkpt lat="42.05594" lon="9.16208">
        <ele>1456.72</ele>
        <time>2015-07-29T12:57:29Z</time>
      </trkpt>
      <trkpt lat="42.05589" lon="9.16233">
        <ele>1459.63</ele>
        <time>2015-07-29T12:57:04Z</time>
      </trkpt>
      <trkpt lat="42.05584" lon="9.16256">
        <ele>1462.9</ele>
        <time>2015-07-29T12:56:44Z</time>
      </trkpt>
      <trkpt lat="42.05578" lon="9.1628">
        <ele>1463.46</ele>
        <time>2015-07-29T12:56:23Z</time>
      </trkpt>
      <trkpt lat="42.05575" lon="9.16304">
        <ele>1469.48</ele>
        <time>2015-07-29T12:56:03Z</time>
      </trkpt>
      <trkpt lat="42.05571" lon="9.16329">
        <ele>1473.02</ele>
        <time>2015-07-29T12:55:49Z</time>
      </trkpt>
      <trkpt lat="42.0556" lon="9.16349">
        <ele>1472.54</ele>
        <time>2015-07-29T12:55:20Z</time>
      </trkpt>
      <trkpt lat="42.05553" lon="9.16372">
        <ele>1474.88</ele>
        <time>2015-07-29T12:54:51Z</time>
      </trkpt>
      <trkpt lat="42.05544" lon="9.16395">
        <ele>1479.16</ele>
        <time>2015-07-29T12:54:32Z</time>
      </trkpt>
      <trkpt lat="42.05532" lon="9.16414">
        <ele>1470.59</ele>
        <time>2015-07-29T12:54:11Z</time>
      </trkpt>
      <trkpt lat="42.05528" lon="9.16438">
        <ele>1473.22</ele>
        <time>2015-07-29T12:53:42Z</time>
      </trkpt>
      <trkpt lat="42.05524" lon="9.16462">
        <ele>1479.56</ele>
        <time>2015-07-29T12:53:27Z</time>
      </trkpt>
      <trkpt lat="42.05517" lon="9.16484">
        <ele>1478.89</ele>
        <time>2015-07-29T12:53:01Z</time>
      </trkpt>
      <trkpt lat="42.05514" lon="9.16509">
        <ele>1495.49</ele>
        <time>2015-07-29T12:52:41Z</time>
      </trkpt>
      <trkpt lat="42.05501" lon="9.16526">
        <ele>1497.28</ele>
        <time>2015-07-29T12:52:19Z</time>
      </trkpt>
      <trkpt lat="42.05493" lon="9.16548">
        <ele>1495.22</ele>
        <time>2015-07-29T12:51:58Z</time>
      </trkpt>
      <trkpt lat="42.05484" lon="9.1657">
        <ele>1492.51</ele>
        <time>2015-07-29T12:51:42Z</time>
      </trkpt>
      <trkpt lat="42.05471" lon="9.16589">
        <ele>1494.59</ele>
        <time>2015-07-29T12:51:26Z</time>
      </trkpt>
      <trkpt lat="42.05457" lon="9.16606">
        <ele>1498.61</ele>
        <time>2015-07-29T12:51:08Z</time>
      </trkpt>
      <trkpt lat="42.0544" lon="9.16614">
        <ele>1496.72</ele>
        <time>2015-07-29T12:50:46Z</time>
      </trkpt>
      <trkpt lat="42.05424" lon="9.16625">
        <ele>1502.33</ele>
        <time>2015-07-29T12:50:24Z</time>
      </trkpt>
      <trkpt lat="42.05406" lon="9.16626">
        <ele>1501.11</ele>
        <time>2015-07-29T12:50:05Z</time>
      </trkpt>
      <trkpt lat="42.05387" lon="9.1663">
        <ele>1498.75</ele>
        <time>2015-07-29T12:49:48Z</time>
      </trkpt>
      <trkpt lat="42.05369" lon="9.16635">
        <ele>1503.15</ele>
        <time>2015-07-29T12:49:32Z</time>
      </trkpt>
      <trkpt lat="42.05351" lon="9.16642">
        <ele>1504.32</ele>
        <time>2015-07-29T12:48:59Z</time>
      </trkpt>
      <trkpt lat="42.05336" lon="9.16656">
        <ele>1504.29</ele>
        <time>2015-07-29T12:48:28Z</time>
      </trkpt>
      <trkpt lat="42.05328" lon="9.16679">
        <ele>1494.07</ele>
        <time>2015-07-29T12:48:00Z</time>
      </trkpt>
      <trkpt lat="42.05324" lon="9.16704">
        <ele>1502.88</ele>
        <time>2015-07-29T12:47:46Z</time>
      </trkpt>
      <trkpt lat="42.05306" lon="9.16715">
        <ele>1498.28</ele>
        <time>2015-07-29T12:47:30Z</time>
      </trkpt>
      <trkpt lat="42.05289" lon="9.16722">
        <ele>1501.9</ele>
        <time>2015-07-29T12:47:17Z</time>
      </trkpt>
      <trkpt lat="42.05271" lon="9.16717">
        <ele>1507.03</ele>
        <time>2015-07-29T12:47:02Z</time>
      </trkpt>
      <trkpt lat="42.05256" lon="9.16703">
        <ele>1508.7</ele>
        <time>2015-07-29T12:46:43Z</time>
      </trkpt>
      <trkpt lat="42.05238" lon="9.16695">
        <ele>1506.16</ele>
        <time>2015-07-29T12:46:19Z</time>
      </trkpt>
      <trkpt lat="42.05223" lon="9.16709">
        <ele>1506.92</ele>
        <time>2015-07-29T12:45:57Z</time>
      </trkpt>
      <trkpt lat="42.05213" lon="9.16729">
        <ele>1509.25</ele>
        <time>2015-07-29T12:45:28Z</time>
      </trkpt>
      <trkpt lat="42.05197" lon="9.1674">
        <ele>1510.93</ele>
        <time>2015-07-29T12:44:30Z</time>
      </trkpt>
      <trkpt lat="42.05188" lon="9.16762">
        <ele>1513.43</ele>
        <time>2015-07-29T12:43:59Z</time>
      </trkpt>
      <trkpt lat="42.05179" lon="9.16783">
        <ele>1509.09</ele>
        <time>2015-07-29T12:43:31Z</time>
      </trkpt>
      <trkpt lat="42.05176" lon="9.16807">
        <ele>1508.98</ele>
        <time>2015-07-29T12:43:11Z</time>
      </trkpt>
      <trkpt lat="42.05176" lon="9.16831">
        <ele>1513.24</ele>
        <time>2015-07-29T12:42:55Z</time>
      </trkpt>
      <trkpt lat="42.0517" lon="9.16856">
        <ele>1516.19</ele>
        <time>2015-07-29T12:42:38Z</time>
      </trkpt>
      <trkpt lat="42.05162" lon="9.16879">
        <ele>1520</ele>
        <time>2015-07-29T12:42:25Z</time>
      </trkpt>
      <trkpt lat="42.05149" lon="9.16898">
        <ele>1522.18</ele>
        <time>2015-07-29T12:42:10Z</time>
      </trkpt>
      <trkpt lat="42.05137" lon="9.16917">
        <ele>1526.74</ele>
        <time>2015-07-29T12:41:54Z</time>
      </trkpt>
      <trkpt lat="42.05124" lon="9.16936">
        <ele>1523.87</ele>
        <time>2015-07-29T12:41:37Z</time>
      </trkpt>
      <trkpt lat="42.05109" lon="9.16953">
        <ele>1526.85</ele>
        <time>2015-07-29T12:41:21Z</time>
      </trkpt>
      <trkpt lat="42.05093" lon="9.16965">
        <ele>1523.11</ele>
        <time>2015-07-29T12:41:04Z</time>
      </trkpt>
      <trkpt lat="42.05082" lon="9.16985">
        <ele>1518.52</ele>
        <time>2015-07-29T12:40:43Z</time>
      </trkpt>
      <trkpt lat="42.05076" lon="9.17008">
        <ele>1519.39</ele>
        <time>2015-07-29T12:40:22Z</time>
      </trkpt>
      <trkpt lat="42.05067" lon="9.1703">
        <ele>1518.66</ele>
        <time>2015-07-29T12:40:01Z</time>
      </trkpt>
      <trkpt lat="42.05061" lon="9.17054">
        <ele>1518.46</ele>
        <time>2015-07-29T12:39:43Z</time>
      </trkpt>
      <trkpt lat="42.05048" lon="9.17072">
        <ele>1515.6</ele>
        <time>2015-07-29T12:39:21Z</time>
      </trkpt>
      <trkpt lat="42.0503" lon="9.17065">
        <ele>1517.97</ele>
        <time>2015-07-29T12:39:03Z</time>
      </trkpt>
      <trkpt lat="42.05013" lon="9.17056">
        <ele>1522.41</ele>
        <time>2015-07-29T12:38:29Z</time>
      </trkpt>
      <trkpt lat="42.05" lon="9.17039">
        <ele>1515.97</ele>
        <time>2015-07-29T12:38:13Z</time>
      </trkpt>
      <trkpt lat="42.04985" lon="9.17025">
        <ele>1514.45</ele>
        <time>2015-07-29T12:37:56Z</time>
      </trkpt>
      <trkpt lat="42.04967" lon="9.17018">
        <ele>1512.69</ele>
        <time>2015-07-29T12:37:40Z</time>
      </trkpt>
      <trkpt lat="42.04949" lon="9.17013">
        <ele>1513.84</ele>
        <time>2015-07-29T12:37:21Z</time>
      </trkpt>
      <trkpt lat="42.04932" lon="9.17006">
        <ele>1513.47</ele>
        <time>2015-07-29T12:37:01Z</time>
      </trkpt>
      <trkpt lat="42.04914" lon="9.16997">
        <ele>1514.46</ele>
        <time>2015-07-29T12:36:45Z</time>
      </trkpt>
      <trkpt lat="42.04896" lon="9.16989">
        <ele>1517.45</ele>
        <time>2015-07-29T12:36:26Z</time>
      </trkpt>
      <trkpt lat="42.04879" lon="9.16978">
        <ele>1514.28</ele>
        <time>2015-07-29T12:36:10Z</time>
      </trkpt>
      <trkpt lat="42.04871" lon="9.16956">
        <ele>1515.08</ele>
        <time>2015-07-29T12:35:52Z</time>
      </trkpt>
      <trkpt lat="42.04863" lon="9.16933">
        <ele>1522.73</ele>
        <time>2015-07-29T12:35:34Z</time>
      </trkpt>
      <trkpt lat="42.04852" lon="9.16913">
        <ele>1530.11</ele>
        <time>2015-07-29T12:35:21Z</time>
      </trkpt>
      <trkpt lat="42.04843" lon="9.16892">
        <ele>1528.57</ele>
        <time>2015-07-29T12:35:01Z</time>
      </trkpt>
      <trkpt lat="42.04832" lon="9.16871">
        <ele>1528.29</ele>
        <time>2015-07-29T12:34:42Z</time>
      </trkpt>
      <trkpt lat="42.04818" lon="9.16857">
        <ele>1527.76</ele>
        <time>2015-07-29T12:34:28Z</time>
      </trkpt>
      <trkpt lat="42.04802" lon="9.16844">
        <ele>1518.47</ele>
        <time>2015-07-29T12:34:07Z</time>
      </trkpt>
      <trkpt lat="42.04784" lon="9.1684">
        <ele>1524.03</ele>
        <time>2015-07-29T12:33:38Z</time>
      </trkpt>
      <trkpt lat="42.04767" lon="9.16832">
        <ele>1523.24</ele>
        <time>2015-07-29T12:33:22Z</time>
      </trkpt>
      <trkpt lat="42.0475" lon="9.16821">
        <ele>1522.88</ele>
        <time>2015-07-29T12:33:05Z</time>
      </trkpt>
      <trkpt lat="42.04734" lon="9.16809">
        <ele>1521.02</ele>
        <time>2015-07-29T12:32:47Z</time>
      </trkpt>
      <trkpt lat="42.04718" lon="9.16798">
        <ele>1523.05</ele>
        <time>2015-07-29T12:32:29Z</time>
      </trkpt>
      <trkpt lat="42.04699" lon="9.16799">
        <ele>1526.76</ele>
        <time>2015-07-29T12:32:10Z</time>
      </trkpt>
      <trkpt lat="42.04681" lon="9.16801">
        <ele>1526.44</ele>
        <time>2015-07-29T12:31:55Z</time>
      </trkpt>
      <trkpt lat="42.04663" lon="9.16808">
        <ele>1524.09</ele>
        <time>2015-07-29T12:31:41Z</time>
      </trkpt>
      <trkpt lat="42.04646" lon="9.16796">
        <ele>1521.47</ele>
        <time>2015-07-29T12:31:22Z</time>
      </trkpt>
      <trkpt lat="42.04633" lon="9.16779">
        <ele>1522.25</ele>
        <time>2015-07-29T12:31:06Z</time>
      </trkpt>
      <trkpt lat="42.04618" lon="9.16765">
        <ele>1521.47</ele>
        <time>2015-07-29T12:30:51Z</time>
      </trkpt>
      <trkpt lat="42.04601" lon="9.16754">
        <ele>1522.32</ele>
        <time>2015-07-29T12:30:37Z</time>
      </trkpt>
      <trkpt lat="42.04583" lon="9.16749">
        <ele>1524.52</ele>
        <time>2015-07-29T12:30:21Z</time>
      </trkpt>
      <trkpt lat="42.04566" lon="9.16739">
        <ele>1519.5</ele>
        <time>2015-07-29T12:30:09Z</time>
      </trkpt>
      <trkpt lat="42.04553" lon="9.16721">
        <ele>1523.65</ele>
        <time>2015-07-29T12:29:55Z</time>
      </trkpt>
      <trkpt lat="42.04538" lon="9.16707">
        <ele>1526.08</ele>
        <time>2015-07-29T12:29:41Z</time>
      </trkpt>
      <trkpt lat="42.04523" lon="9.16692">
        <ele>1531.98</ele>
        <time>2015-07-29T12:29:18Z</time>
      </trkpt>
      <trkpt lat="42.04505" lon="9.16688">
        <ele>1543.34</ele>
        <time>2015-07-29T12:27:40Z</time>
      </trkpt>
      <trkpt lat="42.04491" lon="9.16673">
        <ele>1539.86</ele>
        <time>2015-07-29T12:27:17Z</time>
      </trkpt>
      <trkpt lat="42.04474" lon="9.16661">
        <ele>1543.5</ele>
        <time>2015-07-29T12:26:52Z</time>
      </trkpt>
      <trkpt lat="42.04458" lon="9.16671">
        <ele>1552.47</ele>
        <time>2015-07-29T12:26:38Z</time>
      </trkpt>
      <trkpt lat="42.04441" lon="9.16681">
        <ele>1549.21</ele>
        <time>2015-07-29T12:26:24Z</time>
      </trkpt>
      <trkpt lat="42.04423" lon="9.16675">
        <ele>1544.48</ele>
        <time>2015-07-29T12:26:03Z</time>
      </trkpt>
      <trkpt lat="42.04411" lon="9.16696">
        <ele>1549.4</ele>
        <time>2015-07-29T12:25:36Z</time>
      </trkpt>
      <trkpt lat="42.04402" lon="9.16717">
        <ele>1546.27</ele>
        <time>2015-07-29T12:25:15Z</time>
      </trkpt>
      <trkpt lat="42.04393" lon="9.16739">
        <ele>1543.84</ele>
        <time>2015-07-29T12:24:57Z</time>
      </trkpt>
      <trkpt lat="42.04381" lon="9.16758">
        <ele>1539.97</ele>
        <time>2015-07-29T12:24:41Z</time>
      </trkpt>
      <trkpt lat="42.04363" lon="9.1676">
        <ele>1538.77</ele>
        <time>2015-07-29T12:24:25Z</time>
      </trkpt>
      <trkpt lat="42.04345" lon="9.16754">
        <ele>1542.34</ele>
        <time>2015-07-29T12:24:07Z</time>
      </trkpt>
      <trkpt lat="42.04329" lon="9.16767">
        <ele>1542.47</ele>
        <time>2015-07-29T12:23:49Z</time>
      </trkpt>
      <trkpt lat="42.04315" lon="9.16783">
        <ele>1543.5</ele>
        <time>2015-07-29T12:23:31Z</time>
      </trkpt>
      <trkpt lat="42.04299" lon="9.16795">
        <ele>1542.83</ele>
        <time>2015-07-29T12:23:11Z</time>
      </trkpt>
      <trkpt lat="42.04283" lon="9.16784">
        <ele>1540.48</ele>
        <time>2015-07-29T12:22:52Z</time>
      </trkpt>
      <trkpt lat="42.04267" lon="9.16771">
        <ele>1541.59</ele>
        <time>2015-07-29T12:22:35Z</time>
      </trkpt>
      <trkpt lat="42.04252" lon="9.16757">
        <ele>1543.75</ele>
        <time>2015-07-29T12:22:19Z</time>
      </trkpt>
      <trkpt lat="42.04235" lon="9.16748">
        <ele>1548.65</ele>
        <time>2015-07-29T12:22:02Z</time>
      </trkpt>
      <trkpt lat="42.04219" lon="9.16736">
        <ele>1549.02</ele>
        <time>2015-07-29T12:21:47Z</time>
      </trkpt>
      <trkpt lat="42.04201" lon="9.16734">
        <ele>1554.53</ele>
        <time>2015-07-29T12:21:24Z</time>
      </trkpt>
      <trkpt lat="42.04185" lon="9.16745">
        <ele>1556.89</ele>
        <time>2015-07-29T12:21:06Z</time>
      </trkpt>
      <trkpt lat="42.04173" lon="9.16764">
        <ele>1553.94</ele>
        <time>2015-07-29T12:20:47Z</time>
      </trkpt>
      <trkpt lat="42.04165" lon="9.16786">
        <ele>1553.22</ele>
        <time>2015-07-29T12:20:16Z</time>
      </trkpt>
      <trkpt lat="42.04156" lon="9.16808">
        <ele>1550.74</ele>
        <time>2015-07-29T12:20:02Z</time>
      </trkpt>
      <trkpt lat="42.04149" lon="9.16832">
        <ele>1553</ele>
        <time>2015-07-29T12:19:49Z</time>
      </trkpt>
      <trkpt lat="42.04143" lon="9.16855">
        <ele>1554.34</ele>
        <time>2015-07-29T12:19:34Z</time>
      </trkpt>
      <trkpt lat="42.04134" lon="9.16877">
        <ele>1554.65</ele>
        <time>2015-07-29T12:19:14Z</time>
      </trkpt>
      <trkpt lat="42.04122" lon="9.16897">
        <ele>1551.95</ele>
        <time>2015-07-29T12:18:54Z</time>
      </trkpt>
      <trkpt lat="42.04116" lon="9.1692">
        <ele>1553.06</ele>
        <time>2015-07-29T12:18:38Z</time>
      </trkpt>
      <trkpt lat="42.04112" lon="9.16944">
        <ele>1553.44</ele>
        <time>2015-07-29T12:18:19Z</time>
      </trkpt>
      <trkpt lat="42.04109" lon="9.1697">
        <ele>1552.9</ele>
        <time>2015-07-29T12:18:03Z</time>
      </trkpt>
      <trkpt lat="42.04109" lon="9.16995">
        <ele>1550.03</ele>
        <time>2015-07-29T12:17:46Z</time>
      </trkpt>
      <trkpt lat="42.04102" lon="9.17017">
        <ele>1550.02</ele>
        <time>2015-07-29T12:17:30Z</time>
      </trkpt>
      <trkpt lat="42.04093" lon="9.17039">
        <ele>1551.31</ele>
        <time>2015-07-29T12:17:13Z</time>
      </trkpt>
      <trkpt lat="42.04079" lon="9.17056">
        <ele>1548.54</ele>
        <time>2015-07-29T12:16:56Z</time>
      </trkpt>
      <trkpt lat="42.04067" lon="9.17074">
        <ele>1553.29</ele>
        <time>2015-07-29T12:16:44Z</time>
      </trkpt>
      <trkpt lat="42.04051" lon="9.17088">
        <ele>1556.36</ele>
        <time>2015-07-29T12:16:26Z</time>
      </trkpt>
      <trkpt lat="42.04032" lon="9.17092">
        <ele>1557.06</ele>
        <time>2015-07-29T12:15:51Z</time>
      </trkpt>
      <trkpt lat="42.04019" lon="9.1711">
        <ele>1557.66</ele>
        <time>2015-07-29T12:15:31Z</time>
      </trkpt>
      <trkpt lat="42.04016" lon="9.17135">
        <ele>1557.98</ele>
        <time>2015-07-29T12:15:08Z</time>
      </trkpt>
      <trkpt lat="42.04013" lon="9.17161">
        <ele>1559.47</ele>
        <time>2015-07-29T12:14:51Z</time>
      </trkpt>
      <trkpt lat="42.04002" lon="9.1718">
        <ele>1558.93</ele>
        <time>2015-07-29T12:14:30Z</time>
      </trkpt>
      <trkpt lat="42.03991" lon="9.17201">
        <ele>1554.53</ele>
        <time>2015-07-29T12:14:04Z</time>
      </trkpt>
      <trkpt lat="42.0398" lon="9.17221">
        <ele>1560.01</ele>
        <time>2015-07-29T12:13:39Z</time>
      </trkpt>
      <trkpt lat="42.03967" lon="9.17239">
        <ele>1561.97</ele>
        <time>2015-07-29T12:13:18Z</time>
      </trkpt>
      <trkpt lat="42.03949" lon="9.17238">
        <ele>1565.23</ele>
        <time>2015-07-29T12:12:50Z</time>
      </trkpt>
      <trkpt lat="42.0393" lon="9.17235">
        <ele>1567.45</ele>
        <time>2015-07-29T12:12:28Z</time>
      </trkpt>
      <trkpt lat="42.03912" lon="9.17231">
        <ele>1571.76</ele>
        <time>2015-07-29T12:12:11Z</time>
      </trkpt>
      <trkpt lat="42.03897" lon="9.17218">
        <ele>1570.83</ele>
        <time>2015-07-29T12:11:50Z</time>
      </trkpt>
      <trkpt lat="42.03879" lon="9.17214">
        <ele>1572.27</ele>
        <time>2015-07-29T12:11:30Z</time>
      </trkpt>
      <trkpt lat="42.0386" lon="9.17214">
        <ele>1572.13</ele>
        <time>2015-07-29T12:11:16Z</time>
      </trkpt>
      <trkpt lat="42.03845" lon="9.17198">
        <ele>1573.05</ele>
        <time>2015-07-29T12:11:00Z</time>
      </trkpt>
      <trkpt lat="42.0383" lon="9.17185">
        <ele>1566.5</ele>
        <time>2015-07-29T12:10:44Z</time>
      </trkpt>
      <trkpt lat="42.03815" lon="9.1717">
        <ele>1566.59</ele>
        <time>2015-07-29T12:10:25Z</time>
      </trkpt>
      <trkpt lat="42.03802" lon="9.17153">
        <ele>1572.07</ele>
        <time>2015-07-29T12:09:58Z</time>
      </trkpt>
      <trkpt lat="42.03792" lon="9.17132">
        <ele>1579.35</ele>
        <time>2015-07-29T12:09:41Z</time>
      </trkpt>
      <trkpt lat="42.03783" lon="9.17109">
        <ele>1579.96</ele>
        <time>2015-07-29T12:09:23Z</time>
      </trkpt>
      <trkpt lat="42.03776" lon="9.17086">
        <ele>1576.34</ele>
        <time>2015-07-29T12:09:05Z</time>
      </trkpt>
      <trkpt lat="42.03768" lon="9.17063">
        <ele>1580.75</ele>
        <time>2015-07-29T12:08:47Z</time>
      </trkpt>
      <trkpt lat="42.03763" lon="9.17039">
        <ele>1586.07</ele>
        <time>2015-07-29T12:08:26Z</time>
      </trkpt>
      <trkpt lat="42.03754" lon="9.17018">
        <ele>1592.73</ele>
        <time>2015-07-29T12:08:03Z</time>
      </trkpt>
      <trkpt lat="42.03738" lon="9.17008">
        <ele>1594.41</ele>
        <time>2015-07-29T12:07:40Z</time>
      </trkpt>
      <trkpt lat="42.03719" lon="9.17007">
        <ele>1593.13</ele>
        <time>2015-07-29T12:07:23Z</time>
      </trkpt>
      <trkpt lat="42.03703" lon="9.16995">
        <ele>1589.98</ele>
        <time>2015-07-29T12:07:06Z</time>
      </trkpt>
      <trkpt lat="42.03686" lon="9.16986">
        <ele>1592.23</ele>
        <time>2015-07-29T12:06:53Z</time>
      </trkpt>
      <trkpt lat="42.03677" lon="9.16964">
        <ele>1588.45</ele>
        <time>2015-07-29T12:06:29Z</time>
      </trkpt>
      <trkpt lat="42.03659" lon="9.16958">
        <ele>1581.47</ele>
        <time>2015-07-29T12:06:05Z</time>
      </trkpt>
      <trkpt lat="42.03642" lon="9.1695">
        <ele>1577.5</ele>
        <time>2015-07-29T12:05:50Z</time>
      </trkpt>
      <trkpt lat="42.03624" lon="9.16942">
        <ele>1573.25</ele>
        <time>2015-07-29T12:05:33Z</time>
      </trkpt>
      <trkpt lat="42.03607" lon="9.16932">
        <ele>1573.06</ele>
        <time>2015-07-29T12:05:17Z</time>
      </trkpt>
      <trkpt lat="42.0359" lon="9.16922">
        <ele>1573.39</ele>
        <time>2015-07-29T12:05:01Z</time>
      </trkpt>
      <trkpt lat="42.03573" lon="9.16912">
        <ele>1574.73</ele>
        <time>2015-07-29T12:04:46Z</time>
      </trkpt>
      <trkpt lat="42.03557" lon="9.16903">
        <ele>1577.34</ele>
        <time>2015-07-29T12:04:26Z</time>
      </trkpt>
      <trkpt lat="42.0354" lon="9.16892">
        <ele>1579.47</ele>
        <time>2015-07-29T12:04:10Z</time>
      </trkpt>
      <trkpt lat="42.03522" lon="9.16884">
        <ele>1580.22</ele>
        <time>2015-07-29T12:03:55Z</time>
      </trkpt>
      <trkpt lat="42.03506" lon="9.16873">
        <ele>1580.22</ele>
        <time>2015-07-29T12:03:39Z</time>
      </trkpt>
      <trkpt lat="42.03492" lon="9.16856">
        <ele>1577.23</ele>
        <time>2015-07-29T12:03:23Z</time>
      </trkpt>
      <trkpt lat="42.03491" lon="9.16831">
        <ele>1579.78</ele>
        <time>2015-07-29T12:03:05Z</time>
      </trkpt>
      <trkpt lat="42.03481" lon="9.1681">
        <ele>1582.46</ele>
        <time>2015-07-29T12:02:42Z</time>
      </trkpt>
      <trkpt lat="42.03462" lon="9.16806">
        <ele>1580.47</ele>
        <time>2015-07-29T12:02:22Z</time>
      </trkpt>
      <trkpt lat="42.03445" lon="9.16795">
        <ele>1582.5</ele>
        <time>2015-07-29T12:02:05Z</time>
      </trkpt>
      <trkpt lat="42.0343" lon="9.16781">
        <ele>1583.46</ele>
        <time>2015-07-29T12:01:42Z</time>
      </trkpt>
      <trkpt lat="42.03416" lon="9.16765">
        <ele>1584.55</ele>
        <time>2015-07-29T12:01:21Z</time>
      </trkpt>
      <trkpt lat="42.03407" lon="9.16744">
        <ele>1580.47</ele>
        <time>2015-07-29T12:01:01Z</time>
      </trkpt>
      <trkpt lat="42.03398" lon="9.16722">
        <ele>1582.73</ele>
        <time>2015-07-29T12:00:42Z</time>
      </trkpt>
      <trkpt lat="42.03386" lon="9.16703">
        <ele>1587.14</ele>
        <time>2015-07-29T12:00:10Z</time>
      </trkpt>
      <trkpt lat="42.03376" lon="9.16683">
        <ele>1581.16</ele>
        <time>2015-07-29T11:59:50Z</time>
      </trkpt>
      <trkpt lat="42.03365" lon="9.16663">
        <ele>1580.03</ele>
        <time>2015-07-29T11:59:31Z</time>
      </trkpt>
      <trkpt lat="42.03354" lon="9.16643">
        <ele>1577.14</ele>
        <time>2015-07-29T11:59:13Z</time>
      </trkpt>
      <trkpt lat="42.03344" lon="9.16622">
        <ele>1572.14</ele>
        <time>2015-07-29T11:58:55Z</time>
      </trkpt>
      <trkpt lat="42.03335" lon="9.166">
        <ele>1563.47</ele>
        <time>2015-07-29T11:58:35Z</time>
      </trkpt>
      <trkpt lat="42.03331" lon="9.16576">
        <ele>1562.47</ele>
        <time>2015-07-29T11:58:13Z</time>
      </trkpt>
      <trkpt lat="42.03314" lon="9.16565">
        <ele>1568.65</ele>
        <time>2015-07-29T11:57:42Z</time>
      </trkpt>
      <trkpt lat="42.03301" lon="9.16584">
        <ele>1564.98</ele>
        <time>2015-07-29T11:03:54Z</time>
      </trkpt>
      <trkpt lat="42.03313" lon="9.16565">
        <ele>1568.49</ele>
        <time>2015-07-29T11:03:38Z</time>
      </trkpt>
      <trkpt lat="42.03329" lon="9.16551">
        <ele>1573.35</ele>
        <time>2015-07-29T11:03:24Z</time>
      </trkpt>
      <trkpt lat="42.03333" lon="9.16526">
        <ele>1575.83</ele>
        <time>2015-07-29T11:03:09Z</time>
      </trkpt>
      <trkpt lat="42.03343" lon="9.16504">
        <ele>1578.47</ele>
        <time>2015-07-29T11:02:53Z</time>
      </trkpt>
      <trkpt lat="42.03355" lon="9.16483">
        <ele>1577.87</ele>
        <time>2015-07-29T11:02:27Z</time>
      </trkpt>
      <trkpt lat="42.03367" lon="9.16464">
        <ele>1574.87</ele>
        <time>2015-07-29T11:01:54Z</time>
      </trkpt>
      <trkpt lat="42.03383" lon="9.16454">
        <ele>1577.58</ele>
        <time>2015-07-29T11:01:35Z</time>
      </trkpt>
      <trkpt lat="42.03399" lon="9.1644">
        <ele>1581.47</ele>
        <time>2015-07-29T11:01:04Z</time>
      </trkpt>
      <trkpt lat="42.03415" lon="9.16428">
        <ele>1587.97</ele>
        <time>2015-07-29T11:00:21Z</time>
      </trkpt>
      <trkpt lat="42.03423" lon="9.16406">
        <ele>1589.92</ele>
        <time>2015-07-29T10:59:47Z</time>
      </trkpt>
      <trkpt lat="42.03435" lon="9.16387">
        <ele>1600.21</ele>
        <time>2015-07-29T10:59:29Z</time>
      </trkpt>
      <trkpt lat="42.0345" lon="9.16372">
        <ele>1605.47</ele>
        <time>2015-07-29T10:58:59Z</time>
      </trkpt>
      <trkpt lat="42.03451" lon="9.16347">
        <ele>1608</ele>
        <time>2015-07-29T10:57:51Z</time>
      </trkpt>
      <trkpt lat="42.03441" lon="9.16326">
        <ele>1609.47</ele>
        <time>2015-07-29T10:57:32Z</time>
      </trkpt>
      <trkpt lat="42.0344" lon="9.16301">
        <ele>1610.47</ele>
        <time>2015-07-29T10:57:14Z</time>
      </trkpt>
      <trkpt lat="42.03432" lon="9.16279">
        <ele>1616.48</ele>
        <time>2015-07-29T10:56:42Z</time>
      </trkpt>
      <trkpt lat="42.03434" lon="9.16255">
        <ele>1619.79</ele>
        <time>2015-07-29T10:56:04Z</time>
      </trkpt>
      <trkpt lat="42.03428" lon="9.16232">
        <ele>1625.56</ele>
        <time>2015-07-29T10:55:12Z</time>
      </trkpt>
      <trkpt lat="42.03424" lon="9.16208">
        <ele>1628.06</ele>
        <time>2015-07-29T10:54:39Z</time>
      </trkpt>
      <trkpt lat="42.03407" lon="9.162">
        <ele>1630.96</ele>
        <time>2015-07-29T10:54:04Z</time>
      </trkpt>
      <trkpt lat="42.03393" lon="9.16185">
        <ele>1631.53</ele>
        <time>2015-07-29T10:53:47Z</time>
      </trkpt>
      <trkpt lat="42.03381" lon="9.16166">
        <ele>1633.42</ele>
        <time>2015-07-29T10:53:26Z</time>
      </trkpt>
      <trkpt lat="42.03366" lon="9.16152">
        <ele>1634.59</ele>
        <time>2015-07-29T10:52:57Z</time>
      </trkpt>
      <trkpt lat="42.03348" lon="9.16147">
        <ele>1635.59</ele>
        <time>2015-07-29T10:52:33Z</time>
      </trkpt>
      <trkpt lat="42.03333" lon="9.16135">
        <ele>1638.48</ele>
        <time>2015-07-29T10:52:10Z</time>
      </trkpt>
      <trkpt lat="42.03319" lon="9.16119">
        <ele>1639.72</ele>
        <time>2015-07-29T10:51:54Z</time>
      </trkpt>
      <trkpt lat="42.03306" lon="9.161">
        <ele>1641.02</ele>
        <time>2015-07-29T10:51:37Z</time>
      </trkpt>
      <trkpt lat="42.03291" lon="9.16086">
        <ele>1643.4</ele>
        <time>2015-07-29T10:51:21Z</time>
      </trkpt>
      <trkpt lat="42.03279" lon="9.16068">
        <ele>1644.94</ele>
        <time>2015-07-29T10:50:43Z</time>
      </trkpt>
      <trkpt lat="42.0327" lon="9.16046">
        <ele>1651.68</ele>
        <time>2015-07-29T10:50:21Z</time>
      </trkpt>
      <trkpt lat="42.0326" lon="9.16025">
        <ele>1652.85</ele>
        <time>2015-07-29T10:50:03Z</time>
      </trkpt>
      <trkpt lat="42.03253" lon="9.16002">
        <ele>1652.48</ele>
        <time>2015-07-29T10:49:47Z</time>
      </trkpt>
      <trkpt lat="42.03242" lon="9.15982">
        <ele>1658.47</ele>
        <time>2015-07-29T10:49:23Z</time>
      </trkpt>
      <trkpt lat="42.03231" lon="9.15962">
        <ele>1659.47</ele>
        <time>2015-07-29T10:49:05Z</time>
      </trkpt>
      <trkpt lat="42.03222" lon="9.15941">
        <ele>1660.59</ele>
        <time>2015-07-29T10:48:43Z</time>
      </trkpt>
      <trkpt lat="42.03214" lon="9.15919">
        <ele>1663.61</ele>
        <time>2015-07-29T10:48:17Z</time>
      </trkpt>
      <trkpt lat="42.03209" lon="9.15895">
        <ele>1671.05</ele>
        <time>2015-07-29T10:47:50Z</time>
      </trkpt>
      <trkpt lat="42.03205" lon="9.15871">
        <ele>1681.53</ele>
        <time>2015-07-29T10:47:21Z</time>
      </trkpt>
      <trkpt lat="42.03206" lon="9.15846">
        <ele>1683.46</ele>
        <time>2015-07-29T10:46:31Z</time>
      </trkpt>
      <trkpt lat="42.03197" lon="9.15824">
        <ele>1685.63</ele>
        <time>2015-07-29T10:45:46Z</time>
      </trkpt>
      <trkpt lat="42.03197" lon="9.15799">
        <ele>1683.02</ele>
        <time>2015-07-29T10:45:31Z</time>
      </trkpt>
      <trkpt lat="42.03197" lon="9.15774">
        <ele>1685.32</ele>
        <time>2015-07-29T10:44:58Z</time>
      </trkpt>
      <trkpt lat="42.032" lon="9.15749">
        <ele>1687.97</ele>
        <time>2015-07-29T10:44:43Z</time>
      </trkpt>
      <trkpt lat="42.03205" lon="9.15725">
        <ele>1687.93</ele>
        <time>2015-07-29T10:44:03Z</time>
      </trkpt>
      <trkpt lat="42.03209" lon="9.15701">
        <ele>1693.53</ele>
        <time>2015-07-29T10:43:35Z</time>
      </trkpt>
      <trkpt lat="42.03216" lon="9.15678">
        <ele>1693.48</ele>
        <time>2015-07-29T10:43:08Z</time>
      </trkpt>
      <trkpt lat="42.0322" lon="9.15653">
        <ele>1698.47</ele>
        <time>2015-07-29T10:42:38Z</time>
      </trkpt>
      <trkpt lat="42.03232" lon="9.15635">
        <ele>1698.22</ele>
        <time>2015-07-29T10:42:11Z</time>
      </trkpt>
      <trkpt lat="42.03241" lon="9.15613">
        <ele>1696.49</ele>
        <time>2015-07-29T10:41:56Z</time>
      </trkpt>
      <trkpt lat="42.03251" lon="9.15592">
        <ele>1699.69</ele>
        <time>2015-07-29T10:41:43Z</time>
      </trkpt>
      <trkpt lat="42.03263" lon="9.15571">
        <ele>1700.77</ele>
        <time>2015-07-29T10:41:24Z</time>
      </trkpt>
      <trkpt lat="42.03278" lon="9.15556">
        <ele>1707.59</ele>
        <time>2015-07-29T10:41:03Z</time>
      </trkpt>
      <trkpt lat="42.03289" lon="9.15537">
        <ele>1707.5</ele>
        <time>2015-07-29T10:40:44Z</time>
      </trkpt>
      <trkpt lat="42.0329" lon="9.15512">
        <ele>1705.47</ele>
        <time>2015-07-29T10:40:15Z</time>
      </trkpt>
      <trkpt lat="42.03275" lon="9.15499">
        <ele>1704.97</ele>
        <time>2015-07-29T10:38:57Z</time>
      </trkpt>
      <trkpt lat="42.03258" lon="9.15489">
        <ele>1704.72</ele>
        <time>2015-07-29T10:38:42Z</time>
      </trkpt>
      <trkpt lat="42.03243" lon="9.15472">
        <ele>1706.98</ele>
        <time>2015-07-29T10:38:22Z</time>
      </trkpt>
      <trkpt lat="42.0323" lon="9.15455">
        <ele>1708.72</ele>
        <time>2015-07-29T10:37:45Z</time>
      </trkpt>
      <trkpt lat="42.03222" lon="9.15432">
        <ele>1711.28</ele>
        <time>2015-07-29T10:37:27Z</time>
      </trkpt>
      <trkpt lat="42.03214" lon="9.15409">
        <ele>1712.72</ele>
        <time>2015-07-29T10:37:10Z</time>
      </trkpt>
      <trkpt lat="42.03205" lon="9.15387">
        <ele>1714.56</ele>
        <time>2015-07-29T10:36:53Z</time>
      </trkpt>
      <trkpt lat="42.032" lon="9.15362">
        <ele>1718.58</ele>
        <time>2015-07-29T10:36:38Z</time>
      </trkpt>
      <trkpt lat="42.0319" lon="9.15341">
        <ele>1716.78</ele>
        <time>2015-07-29T10:36:12Z</time>
      </trkpt>
      <trkpt lat="42.03177" lon="9.15323">
        <ele>1716.79</ele>
        <time>2015-07-29T10:35:56Z</time>
      </trkpt>
      <trkpt lat="42.03168" lon="9.15301">
        <ele>1713.53</ele>
        <time>2015-07-29T10:35:31Z</time>
      </trkpt>
      <trkpt lat="42.03163" lon="9.15276">
        <ele>1712.44</ele>
        <time>2015-07-29T10:35:14Z</time>
      </trkpt>
      <trkpt lat="42.03153" lon="9.15256">
        <ele>1710.43</ele>
        <time>2015-07-29T10:34:39Z</time>
      </trkpt>
      <trkpt lat="42.0315" lon="9.15231">
        <ele>1709.68</ele>
        <time>2015-07-29T10:34:10Z</time>
      </trkpt>
      <trkpt lat="42.03145" lon="9.15208">
        <ele>1705.48</ele>
        <time>2015-07-29T10:33:31Z</time>
      </trkpt>
      <trkpt lat="42.0315" lon="9.15185">
        <ele>1708.05</ele>
        <time>2015-07-29T10:33:16Z</time>
      </trkpt>
      <trkpt lat="42.03159" lon="9.15162">
        <ele>1709.45</ele>
        <time>2015-07-29T10:32:50Z</time>
      </trkpt>
      <trkpt lat="42.03171" lon="9.15144">
        <ele>1715.2</ele>
        <time>2015-07-29T10:32:28Z</time>
      </trkpt>
      <trkpt lat="42.03182" lon="9.15125">
        <ele>1715.03</ele>
        <time>2015-07-29T10:31:55Z</time>
      </trkpt>
      <trkpt lat="42.03187" lon="9.15102">
        <ele>1717.83</ele>
        <time>2015-07-29T10:31:24Z</time>
      </trkpt>
      <trkpt lat="42.03195" lon="9.15079">
        <ele>1716.47</ele>
        <time>2015-07-29T10:30:52Z</time>
      </trkpt>
      <trkpt lat="42.03203" lon="9.15057">
        <ele>1717.21</ele>
        <time>2015-07-29T10:30:24Z</time>
      </trkpt>
      <trkpt lat="42.03205" lon="9.15033">
        <ele>1719.55</ele>
        <time>2015-07-29T10:30:06Z</time>
      </trkpt>
      <trkpt lat="42.03204" lon="9.15007">
        <ele>1720.96</ele>
        <time>2015-07-29T10:29:46Z</time>
      </trkpt>
      <trkpt lat="42.03199" lon="9.14983">
        <ele>1724.5</ele>
        <time>2015-07-29T10:29:10Z</time>
      </trkpt>
      <trkpt lat="42.03206" lon="9.1496">
        <ele>1726.48</ele>
        <time>2015-07-29T10:28:45Z</time>
      </trkpt>
      <trkpt lat="42.03208" lon="9.14936">
        <ele>1724.44</ele>
        <time>2015-07-29T10:28:10Z</time>
      </trkpt>
      <trkpt lat="42.03196" lon="9.14917">
        <ele>1723.97</ele>
        <time>2015-07-29T10:26:38Z</time>
      </trkpt>
      <trkpt lat="42.03185" lon="9.14898">
        <ele>1722.7</ele>
        <time>2015-07-29T10:25:59Z</time>
      </trkpt>
      <trkpt lat="42.03178" lon="9.14874">
        <ele>1730.72</ele>
        <time>2015-07-29T10:25:23Z</time>
      </trkpt>
      <trkpt lat="42.03166" lon="9.14857">
        <ele>1733.34</ele>
        <time>2015-07-29T10:24:57Z</time>
      </trkpt>
      <trkpt lat="42.03162" lon="9.14833">
        <ele>1735.48</ele>
        <time>2015-07-29T10:24:37Z</time>
      </trkpt>
      <trkpt lat="42.03167" lon="9.14808">
        <ele>1740.29</ele>
        <time>2015-07-29T10:24:18Z</time>
      </trkpt>
      <trkpt lat="42.03174" lon="9.14785">
        <ele>1740.65</ele>
        <time>2015-07-29T10:23:55Z</time>
      </trkpt>
      <trkpt lat="42.03176" lon="9.1476">
        <ele>1743.48</ele>
        <time>2015-07-29T10:23:35Z</time>
      </trkpt>
      <trkpt lat="42.03167" lon="9.14739">
        <ele>1744.84</ele>
        <time>2015-07-29T10:23:21Z</time>
      </trkpt>
      <trkpt lat="42.03162" lon="9.14715">
        <ele>1739.12</ele>
        <time>2015-07-29T07:52:36Z</time>
      </trkpt>
      <trkpt lat="42.03145" lon="9.14724">
        <ele>1736.21</ele>
        <time>2015-07-29T07:50:10Z</time>
      </trkpt>
      <trkpt lat="42.03159" lon="9.14709">
        <ele>1739.69</ele>
        <time>2015-07-29T07:45:01Z</time>
      </trkpt>
      <trkpt lat="42.03145" lon="9.14723">
        <ele>1739.26</ele>
        <time>2015-07-29T07:44:12Z</time>
      </trkpt>
      <trkpt lat="42.03126" lon="9.1472">
        <ele>1736.09</ele>
        <time>2015-07-29T07:43:44Z</time>
      </trkpt>
      <trkpt lat="42.0311" lon="9.1471">
        <ele>1733.71</ele>
        <time>2015-07-29T07:43:18Z</time>
      </trkpt>
      <trkpt lat="42.03095" lon="9.14697">
        <ele>1729.81</ele>
        <time>2015-07-29T07:42:38Z</time>
      </trkpt>
      <trkpt lat="42.03077" lon="9.147">
        <ele>1724.23</ele>
        <time>2015-07-29T07:42:02Z</time>
      </trkpt>
      <trkpt lat="42.03058" lon="9.147">
        <ele>1722.17</ele>
        <time>2015-07-29T07:41:21Z</time>
      </trkpt>
      <trkpt lat="42.03046" lon="9.14718">
        <ele>1723.05</ele>
        <time>2015-07-29T07:40:54Z</time>
      </trkpt>
      <trkpt lat="42.0303" lon="9.1473">
        <ele>1709.03</ele>
        <time>2015-07-29T07:39:51Z</time>
      </trkpt>
      <trkpt lat="42.03022" lon="9.14752">
        <ele>1709.4</ele>
        <time>2015-07-29T07:39:25Z</time>
      </trkpt>
      <trkpt lat="42.03012" lon="9.14773">
        <ele>1700.96</ele>
        <time>2015-07-29T07:38:07Z</time>
      </trkpt>
      <trkpt lat="42.02993" lon="9.14775">
        <ele>1699.24</ele>
        <time>2015-07-29T07:37:29Z</time>
      </trkpt>
      <trkpt lat="42.02975" lon="9.14775">
        <ele>1690.19</ele>
        <time>2015-07-29T07:36:44Z</time>
      </trkpt>
      <trkpt lat="42.02957" lon="9.14779">
        <ele>1680.6</ele>
        <time>2015-07-29T07:35:41Z</time>
      </trkpt>
      <trkpt lat="42.02944" lon="9.14798">
        <ele>1674.69</ele>
        <time>2015-07-29T07:34:52Z</time>
      </trkpt>
      <trkpt lat="42.02928" lon="9.14809">
        <ele>1668.96</ele>
        <time>2015-07-29T07:34:04Z</time>
      </trkpt>
      <trkpt lat="42.02911" lon="9.14818">
        <ele>1658.93</ele>
        <time>2015-07-29T07:33:10Z</time>
      </trkpt>
      <trkpt lat="42.02893" lon="9.14823">
        <ele>1653.43</ele>
        <time>2015-07-29T07:32:29Z</time>
      </trkpt>
      <trkpt lat="42.0288" lon="9.14806">
        <ele>1655.57</ele>
        <time>2015-07-29T07:31:47Z</time>
      </trkpt>
      <trkpt lat="42.02862" lon="9.14807">
        <ele>1654.4</ele>
        <time>2015-07-29T07:31:14Z</time>
      </trkpt>
      <trkpt lat="42.02852" lon="9.14827">
        <ele>1644.97</ele>
        <time>2015-07-29T07:30:37Z</time>
      </trkpt>
      <trkpt lat="42.02846" lon="9.1485">
        <ele>1640.05</ele>
        <time>2015-07-29T07:30:06Z</time>
      </trkpt>
      <trkpt lat="42.02832" lon="9.14867">
        <ele>1634.16</ele>
        <time>2015-07-29T07:29:37Z</time>
      </trkpt>
      <trkpt lat="42.02814" lon="9.14872">
        <ele>1643.04</ele>
        <time>2015-07-29T07:29:15Z</time>
      </trkpt>
      <trkpt lat="42.02796" lon="9.14869">
        <ele>1637.4</ele>
        <time>2015-07-29T07:28:51Z</time>
      </trkpt>
      <trkpt lat="42.02778" lon="9.14868">
        <ele>1638.51</ele>
        <time>2015-07-29T07:25:59Z</time>
      </trkpt>
      <trkpt lat="42.02759" lon="9.1487">
        <ele>1644.77</ele>
        <time>2015-07-29T07:25:30Z</time>
      </trkpt>
      <trkpt lat="42.02751" lon="9.14892">
        <ele>1638.18</ele>
        <time>2015-07-29T07:24:58Z</time>
      </trkpt>
      <trkpt lat="42.02734" lon="9.14905">
        <ele>1641.54</ele>
        <time>2015-07-29T07:24:28Z</time>
      </trkpt>
      <trkpt lat="42.02731" lon="9.14929">
        <ele>1624.09</ele>
        <time>2015-07-29T07:23:33Z</time>
      </trkpt>
      <trkpt lat="42.02721" lon="9.14949">
        <ele>1626.02</ele>
        <time>2015-07-29T07:22:46Z</time>
      </trkpt>
      <trkpt lat="42.02709" lon="9.14969">
        <ele>1622.27</ele>
        <time>2015-07-29T07:22:02Z</time>
      </trkpt>
      <trkpt lat="42.02698" lon="9.14989">
        <ele>1624.26</ele>
        <time>2015-07-29T07:21:24Z</time>
      </trkpt>
      <trkpt lat="42.02695" lon="9.15014">
        <ele>1607.55</ele>
        <time>2015-07-29T07:20:51Z</time>
      </trkpt>
      <trkpt lat="42.02689" lon="9.15037">
        <ele>1611.72</ele>
        <time>2015-07-29T07:20:17Z</time>
      </trkpt>
      <trkpt lat="42.02685" lon="9.15062">
        <ele>1603.11</ele>
        <time>2015-07-29T07:19:31Z</time>
      </trkpt>
      <trkpt lat="42.02694" lon="9.15083">
        <ele>1595.04</ele>
        <time>2015-07-29T07:18:52Z</time>
      </trkpt>
      <trkpt lat="42.02696" lon="9.15108">
        <ele>1588.62</ele>
        <time>2015-07-29T07:17:55Z</time>
      </trkpt>
      <trkpt lat="42.02699" lon="9.15132">
        <ele>1583.21</ele>
        <time>2015-07-29T07:17:05Z</time>
      </trkpt>
      <trkpt lat="42.02706" lon="9.15156">
        <ele>1580.7</ele>
        <time>2015-07-29T07:16:36Z</time>
      </trkpt>
      <trkpt lat="42.02716" lon="9.15178">
        <ele>1575.56</ele>
        <time>2015-07-29T07:15:33Z</time>
      </trkpt>
      <trkpt lat="42.02721" lon="9.15201">
        <ele>1578.33</ele>
        <time>2015-07-29T07:14:56Z</time>
      </trkpt>
      <trkpt lat="42.02726" lon="9.15225">
        <ele>1573.66</ele>
        <time>2015-07-29T07:14:35Z</time>
      </trkpt>
      <trkpt lat="42.0272" lon="9.1525">
        <ele>1560.32</ele>
        <time>2015-07-29T07:13:32Z</time>
      </trkpt>
      <trkpt lat="42.02704" lon="9.15262">
        <ele>1551.2</ele>
        <time>2015-07-29T07:12:58Z</time>
      </trkpt>
      <trkpt lat="42.02694" lon="9.15282">
        <ele>1542.4</ele>
        <time>2015-07-29T07:12:28Z</time>
      </trkpt>
      <trkpt lat="42.02689" lon="9.15306">
        <ele>1534.18</ele>
        <time>2015-07-29T07:11:21Z</time>
      </trkpt>
      <trkpt lat="42.02681" lon="9.15328">
        <ele>1533.69</ele>
        <time>2015-07-29T07:10:48Z</time>
      </trkpt>
      <trkpt lat="42.02667" lon="9.15345">
        <ele>1528.96</ele>
        <time>2015-07-29T07:10:27Z</time>
      </trkpt>
      <trkpt lat="42.02654" lon="9.15363">
        <ele>1526.86</ele>
        <time>2015-07-29T07:09:53Z</time>
      </trkpt>
      <trkpt lat="42.02655" lon="9.15387">
        <ele>1525.21</ele>
        <time>2015-07-29T07:09:05Z</time>
      </trkpt>
      <trkpt lat="42.02655" lon="9.15412">
        <ele>1528.44</ele>
        <time>2015-07-29T07:08:35Z</time>
      </trkpt>
      <trkpt lat="42.02653" lon="9.15437">
        <ele>1532.07</ele>
        <time>2015-07-29T07:08:08Z</time>
      </trkpt>
      <trkpt lat="42.02648" lon="9.1546">
        <ele>1526.95</ele>
        <time>2015-07-29T07:07:42Z</time>
      </trkpt>
      <trkpt lat="42.02659" lon="9.15479">
        <ele>1515.06</ele>
        <time>2015-07-29T07:06:55Z</time>
      </trkpt>
      <trkpt lat="42.02665" lon="9.15502">
        <ele>1512.08</ele>
        <time>2015-07-29T07:06:29Z</time>
      </trkpt>
      <trkpt lat="42.0267" lon="9.15527">
        <ele>1503.18</ele>
        <time>2015-07-29T07:05:48Z</time>
      </trkpt>
      <trkpt lat="42.02668" lon="9.15551">
        <ele>1497.44</ele>
        <time>2015-07-29T07:05:11Z</time>
      </trkpt>
      <trkpt lat="42.02663" lon="9.15575">
        <ele>1496.96</ele>
        <time>2015-07-29T07:04:44Z</time>
      </trkpt>
      <trkpt lat="42.02675" lon="9.15593">
        <ele>1484.22</ele>
        <time>2015-07-29T07:03:24Z</time>
      </trkpt>
      <trkpt lat="42.02681" lon="9.15616">
        <ele>1475.89</ele>
        <time>2015-07-29T07:02:43Z</time>
      </trkpt>
      <trkpt lat="42.02679" lon="9.15642">
        <ele>1468.11</ele>
        <time>2015-07-29T07:02:05Z</time>
      </trkpt>
      <trkpt lat="42.02679" lon="9.15667">
        <ele>1470.09</ele>
        <time>2015-07-29T07:01:48Z</time>
      </trkpt>
      <trkpt lat="42.02685" lon="9.15691">
        <ele>1464.68</ele>
        <time>2015-07-29T07:00:54Z</time>
      </trkpt>
      <trkpt lat="42.02682" lon="9.15715">
        <ele>1467.48</ele>
        <time>2015-07-29T07:00:26Z</time>
      </trkpt>
      <trkpt lat="42.02676" lon="9.15739">
        <ele>1459.44</ele>
        <time>2015-07-29T06:59:33Z</time>
      </trkpt>
      <trkpt lat="42.0267" lon="9.15762">
        <ele>1456.91</ele>
        <time>2015-07-29T06:59:10Z</time>
      </trkpt>
      <trkpt lat="42.02671" lon="9.15786">
        <ele>1457.47</ele>
        <time>2015-07-29T06:58:52Z</time>
      </trkpt>
      <trkpt lat="42.02663" lon="9.15808">
        <ele>1459.7</ele>
        <time>2015-07-29T06:58:13Z</time>
      </trkpt>
      <trkpt lat="42.02652" lon="9.15828">
        <ele>1437.52</ele>
        <time>2015-07-29T06:57:03Z</time>
      </trkpt>
      <trkpt lat="42.02639" lon="9.15846">
        <ele>1422.63</ele>
        <time>2015-07-29T06:55:51Z</time>
      </trkpt>
      <trkpt lat="42.02628" lon="9.15865">
        <ele>1422.39</ele>
        <time>2015-07-29T06:54:38Z</time>
      </trkpt>
      <trkpt lat="42.02639" lon="9.15885">
        <ele>1414.6</ele>
        <time>2015-07-29T06:53:43Z</time>
      </trkpt>
      <trkpt lat="42.02642" lon="9.15909">
        <ele>1413.9</ele>
        <time>2015-07-29T06:53:24Z</time>
      </trkpt>
      <trkpt lat="42.02637" lon="9.15932">
        <ele>1417</ele>
        <time>2015-07-29T06:51:13Z</time>
      </trkpt>
      <trkpt lat="42.02652" lon="9.15947">
        <ele>1408.19</ele>
        <time>2015-07-29T06:50:50Z</time>
      </trkpt>
      <trkpt lat="42.02659" lon="9.1597">
        <ele>1409.34</ele>
        <time>2015-07-29T06:50:28Z</time>
      </trkpt>
      <trkpt lat="42.02662" lon="9.15995">
        <ele>1392.83</ele>
        <time>2015-07-29T06:50:12Z</time>
      </trkpt>
      <trkpt lat="42.0266" lon="9.1602">
        <ele>1395.65</ele>
        <time>2015-07-29T06:50:00Z</time>
      </trkpt>
      <trkpt lat="42.02672" lon="9.16039">
        <ele>1387.37</ele>
        <time>2015-07-29T06:48:58Z</time>
      </trkpt>
      <trkpt lat="42.02689" lon="9.16049">
        <ele>1383.91</ele>
        <time>2015-07-29T06:48:30Z</time>
      </trkpt>
      <trkpt lat="42.02688" lon="9.16074">
        <ele>1389.09</ele>
        <time>2015-07-29T06:48:17Z</time>
      </trkpt>
      <trkpt lat="42.02704" lon="9.16086">
        <ele>1399.46</ele>
        <time>2015-07-29T06:47:20Z</time>
      </trkpt>
      <trkpt lat="42.02722" lon="9.16094">
        <ele>1395.46</ele>
        <time>2015-07-29T06:46:24Z</time>
      </trkpt>
      <trkpt lat="42.02732" lon="9.16115">
        <ele>1403.7</ele>
        <time>2015-07-29T06:45:41Z</time>
      </trkpt>
      <trkpt lat="42.02738" lon="9.16139">
        <ele>1396.35</ele>
        <time>2015-07-29T06:45:15Z</time>
      </trkpt>
      <trkpt lat="42.02742" lon="9.16162">
        <ele>1398.74</ele>
        <time>2015-07-29T06:44:35Z</time>
      </trkpt>
      <trkpt lat="42.02747" lon="9.16187">
        <ele>1399.6</ele>
        <time>2015-07-29T06:44:21Z</time>
      </trkpt>
      <trkpt lat="42.02751" lon="9.16212">
        <ele>1395.47</ele>
        <time>2015-07-29T06:44:09Z</time>
      </trkpt>
      <trkpt lat="42.02752" lon="9.16236">
        <ele>1388.31</ele>
        <time>2015-07-29T06:43:23Z</time>
      </trkpt>
      <trkpt lat="42.02752" lon="9.16263">
        <ele>1394.3</ele>
        <time>2015-07-29T06:43:12Z</time>
      </trkpt>
      <trkpt lat="42.02751" lon="9.16287">
        <ele>1396.72</ele>
        <time>2015-07-29T06:43:00Z</time>
      </trkpt>
      <trkpt lat="42.0275" lon="9.16312">
        <ele>1396.92</ele>
        <time>2015-07-29T06:39:01Z</time>
      </trkpt>
      <trkpt lat="42.02744" lon="9.16338">
        <ele>1401.76</ele>
        <time>2015-07-29T06:38:51Z</time>
      </trkpt>
      <trkpt lat="42.02735" lon="9.16359">
        <ele>1398.63</ele>
        <time>2015-07-29T06:38:40Z</time>
      </trkpt>
      <trkpt lat="42.02721" lon="9.16375">
        <ele>1395.48</ele>
        <time>2015-07-29T06:38:22Z</time>
      </trkpt>
      <trkpt lat="42.02724" lon="9.16399">
        <ele>1398.86</ele>
        <time>2015-07-29T06:37:32Z</time>
      </trkpt>
      <trkpt lat="42.02729" lon="9.16423">
        <ele>1405.47</ele>
        <time>2015-07-29T06:37:13Z</time>
      </trkpt>
      <trkpt lat="42.02727" lon="9.16447">
        <ele>1413.14</ele>
        <time>2015-07-29T06:36:31Z</time>
      </trkpt>
      <trkpt lat="42.02723" lon="9.16471">
        <ele>1411.84</ele>
        <time>2015-07-29T06:36:10Z</time>
      </trkpt>
      <trkpt lat="42.02725" lon="9.16496">
        <ele>1408.57</ele>
        <time>2015-07-29T06:35:48Z</time>
      </trkpt>
      <trkpt lat="42.02725" lon="9.16521">
        <ele>1409.75</ele>
        <time>2015-07-29T06:35:33Z</time>
      </trkpt>
      <trkpt lat="42.02726" lon="9.16547">
        <ele>1415.58</ele>
        <time>2015-07-29T06:34:48Z</time>
      </trkpt>
      <trkpt lat="42.02731" lon="9.16571">
        <ele>1417.5</ele>
        <time>2015-07-29T06:34:34Z</time>
      </trkpt>
      <trkpt lat="42.02733" lon="9.16596">
        <ele>1420.54</ele>
        <time>2015-07-29T06:34:16Z</time>
      </trkpt>
      <trkpt lat="42.02735" lon="9.16621">
        <ele>1417.65</ele>
        <time>2015-07-29T06:34:00Z</time>
      </trkpt>
      <trkpt lat="42.02738" lon="9.16646">
        <ele>1420.61</ele>
        <time>2015-07-29T06:33:30Z</time>
      </trkpt>
      <trkpt lat="42.02736" lon="9.1667">
        <ele>1421.31</ele>
        <time>2015-07-29T06:33:03Z</time>
      </trkpt>
      <trkpt lat="42.02736" lon="9.16695">
        <ele>1425.96</ele>
        <time>2015-07-29T06:32:39Z</time>
      </trkpt>
      <trkpt lat="42.02731" lon="9.16719">
        <ele>1423.15</ele>
        <time>2015-07-29T06:32:20Z</time>
      </trkpt>
      <trkpt lat="42.02731" lon="9.16744">
        <ele>1422.14</ele>
        <time>2015-07-29T06:32:04Z</time>
      </trkpt>
      <trkpt lat="42.02729" lon="9.16769">
        <ele>1426.4</ele>
        <time>2015-07-29T06:31:47Z</time>
      </trkpt>
      <trkpt lat="42.0272" lon="9.1679">
        <ele>1428.98</ele>
        <time>2015-07-29T06:31:14Z</time>
      </trkpt>
      <trkpt lat="42.02717" lon="9.16814">
        <ele>1431.6</ele>
        <time>2015-07-29T06:30:42Z</time>
      </trkpt>
      <trkpt lat="42.02719" lon="9.16839">
        <ele>1431.56</ele>
        <time>2015-07-29T06:30:26Z</time>
      </trkpt>
      <trkpt lat="42.02724" lon="9.16863">
        <ele>1434.83</ele>
        <time>2015-07-29T06:30:08Z</time>
      </trkpt>
      <trkpt lat="42.02723" lon="9.16888">
        <ele>1435.29</ele>
        <time>2015-07-29T06:29:52Z</time>
      </trkpt>
      <trkpt lat="42.02725" lon="9.16913">
        <ele>1438.57</ele>
        <time>2015-07-29T06:29:39Z</time>
      </trkpt>
      <trkpt lat="42.02726" lon="9.16937">
        <ele>1444.08</ele>
        <time>2015-07-29T06:29:16Z</time>
      </trkpt>
      <trkpt lat="42.02726" lon="9.16962">
        <ele>1439.29</ele>
        <time>2015-07-29T06:28:57Z</time>
      </trkpt>
      <trkpt lat="42.02729" lon="9.16986">
        <ele>1436.18</ele>
        <time>2015-07-29T06:28:35Z</time>
      </trkpt>
      <trkpt lat="42.02735" lon="9.1701">
        <ele>1442.55</ele>
        <time>2015-07-29T06:28:15Z</time>
      </trkpt>
      <trkpt lat="42.02736" lon="9.17034">
        <ele>1442.52</ele>
        <time>2015-07-29T06:27:57Z</time>
      </trkpt>
      <trkpt lat="42.02738" lon="9.17059">
        <ele>1447.5</ele>
        <time>2015-07-29T06:27:44Z</time>
      </trkpt>
      <trkpt lat="42.02731" lon="9.17082">
        <ele>1444.96</ele>
        <time>2015-07-29T06:27:31Z</time>
      </trkpt>
      <trkpt lat="42.02719" lon="9.17102">
        <ele>1443.34</ele>
        <time>2015-07-29T06:27:11Z</time>
      </trkpt>
      <trkpt lat="42.02712" lon="9.17125">
        <ele>1445.13</ele>
        <time>2015-07-29T06:26:51Z</time>
      </trkpt>
      <trkpt lat="42.02718" lon="9.17149">
        <ele>1436.3</ele>
        <time>2015-07-29T06:26:29Z</time>
      </trkpt>
      <trkpt lat="42.02728" lon="9.1717">
        <ele>1431.01</ele>
        <time>2015-07-29T06:26:10Z</time>
      </trkpt>
      <trkpt lat="42.02734" lon="9.17194">
        <ele>1431.24</ele>
        <time>2015-07-29T06:25:54Z</time>
      </trkpt>
      <trkpt lat="42.02735" lon="9.17219">
        <ele>1429.57</ele>
        <time>2015-07-29T06:25:27Z</time>
      </trkpt>
      <trkpt lat="42.02742" lon="9.17242">
        <ele>1432.31</ele>
        <time>2015-07-29T06:25:10Z</time>
      </trkpt>
      <trkpt lat="42.02748" lon="9.17266">
        <ele>1432.23</ele>
        <time>2015-07-29T06:24:50Z</time>
      </trkpt>
      <trkpt lat="42.02756" lon="9.17289">
        <ele>1427.83</ele>
        <time>2015-07-29T06:24:35Z</time>
      </trkpt>
      <trkpt lat="42.02755" lon="9.17314">
        <ele>1424.62</ele>
        <time>2015-07-29T06:24:22Z</time>
      </trkpt>
      <trkpt lat="42.02759" lon="9.17339">
        <ele>1427.26</ele>
        <time>2015-07-29T06:23:49Z</time>
      </trkpt>
      <trkpt lat="42.0277" lon="9.17359">
        <ele>1421.82</ele>
        <time>2015-07-29T06:23:37Z</time>
      </trkpt>
      <trkpt lat="42.02772" lon="9.17383">
        <ele>1426.85</ele>
        <time>2015-07-29T06:23:17Z</time>
      </trkpt>
      <trkpt lat="42.02773" lon="9.17409">
        <ele>1434.31</ele>
        <time>2015-07-29T06:23:02Z</time>
      </trkpt>
      <trkpt lat="42.02776" lon="9.17433">
        <ele>1420.65</ele>
        <time>2015-07-29T06:22:49Z</time>
      </trkpt>
      <trkpt lat="42.02773" lon="9.17458">
        <ele>1419.12</ele>
        <time>2015-07-29T06:22:22Z</time>
      </trkpt>
      <trkpt lat="42.02766" lon="9.1748">
        <ele>1421.79</ele>
        <time>2015-07-29T06:21:58Z</time>
      </trkpt>
      <trkpt lat="42.02762" lon="9.17504">
        <ele>1416.6</ele>
        <time>2015-07-29T06:21:42Z</time>
      </trkpt>
      <trkpt lat="42.02758" lon="9.17529">
        <ele>1404.88</ele>
        <time>2015-07-29T06:21:00Z</time>
      </trkpt>
      <trkpt lat="42.02757" lon="9.17554">
        <ele>1407.06</ele>
        <time>2015-07-29T06:20:44Z</time>
      </trkpt>
      <trkpt lat="42.02751" lon="9.17578">
        <ele>1411.47</ele>
        <time>2015-07-29T06:20:22Z</time>
      </trkpt>
      <trkpt lat="42.02751" lon="9.17602">
        <ele>1399.65</ele>
        <time>2015-07-29T06:19:40Z</time>
      </trkpt>
      <trkpt lat="42.02748" lon="9.17627">
        <ele>1399.97</ele>
        <time>2015-07-29T06:19:19Z</time>
      </trkpt>
      <trkpt lat="42.02745" lon="9.17652">
        <ele>1399.28</ele>
        <time>2015-07-29T06:19:04Z</time>
      </trkpt>
      <trkpt lat="42.02741" lon="9.17676">
        <ele>1398.22</ele>
        <time>2015-07-29T06:18:51Z</time>
      </trkpt>
      <trkpt lat="42.02734" lon="9.177">
        <ele>1397.03</ele>
        <time>2015-07-29T06:18:07Z</time>
      </trkpt>
      <trkpt lat="42.02737" lon="9.17724">
        <ele>1393.22</ele>
        <time>2015-07-29T06:17:47Z</time>
      </trkpt>
      <trkpt lat="42.02733" lon="9.17748">
        <ele>1391.84</ele>
        <time>2015-07-29T06:17:28Z</time>
      </trkpt>
      <trkpt lat="42.02731" lon="9.17774">
        <ele>1393.75</ele>
        <time>2015-07-29T06:17:08Z</time>
      </trkpt>
      <trkpt lat="42.02726" lon="9.17797">
        <ele>1402.85</ele>
        <time>2015-07-29T06:16:53Z</time>
      </trkpt>
      <trkpt lat="42.02725" lon="9.17822">
        <ele>1392.6</ele>
        <time>2015-07-29T06:16:23Z</time>
      </trkpt>
      <trkpt lat="42.02729" lon="9.17847">
        <ele>1398.59</ele>
        <time>2015-07-29T06:16:08Z</time>
      </trkpt>
      <trkpt lat="42.02732" lon="9.17871">
        <ele>1386.34</ele>
        <time>2015-07-29T06:15:50Z</time>
      </trkpt>
      <trkpt lat="42.02738" lon="9.17895">
        <ele>1385.27</ele>
        <time>2015-07-29T06:15:27Z</time>
      </trkpt>
      <trkpt lat="42.02743" lon="9.1792">
        <ele>1376.61</ele>
        <time>2015-07-29T06:15:11Z</time>
      </trkpt>
      <trkpt lat="42.0275" lon="9.17943">
        <ele>1381.16</ele>
        <time>2015-07-29T06:14:57Z</time>
      </trkpt>
      <trkpt lat="42.02755" lon="9.17967">
        <ele>1383.48</ele>
        <time>2015-07-29T06:14:35Z</time>
      </trkpt>
      <trkpt lat="42.0275" lon="9.17991">
        <ele>1387.42</ele>
        <time>2015-07-29T06:14:15Z</time>
      </trkpt>
      <trkpt lat="42.02745" lon="9.18015">
        <ele>1372.08</ele>
        <time>2015-07-29T06:13:51Z</time>
      </trkpt>
      <trkpt lat="42.02741" lon="9.1804">
        <ele>1369.28</ele>
        <time>2015-07-29T06:13:36Z</time>
      </trkpt>
      <trkpt lat="42.02731" lon="9.18062">
        <ele>1367.53</ele>
        <time>2015-07-29T06:12:41Z</time>
      </trkpt>
      <trkpt lat="42.02737" lon="9.18085">
        <ele>1362.55</ele>
        <time>2015-07-29T06:12:27Z</time>
      </trkpt>
      <trkpt lat="42.02744" lon="9.18109">
        <ele>1375.33</ele>
        <time>2015-07-29T06:12:01Z</time>
      </trkpt>
      <trkpt lat="42.02743" lon="9.18134">
        <ele>1365.25</ele>
        <time>2015-07-29T06:11:33Z</time>
      </trkpt>
      <trkpt lat="42.02742" lon="9.18159">
        <ele>1361.15</ele>
        <time>2015-07-29T06:11:17Z</time>
      </trkpt>
      <trkpt lat="42.02731" lon="9.1818">
        <ele>1355.52</ele>
        <time>2015-07-29T06:11:01Z</time>
      </trkpt>
      <trkpt lat="42.0273" lon="9.18204">
        <ele>1356.51</ele>
        <time>2015-07-29T06:10:48Z</time>
      </trkpt>
      <trkpt lat="42.02728" lon="9.1823">
        <ele>1351.72</ele>
        <time>2015-07-29T06:10:28Z</time>
      </trkpt>
      <trkpt lat="42.02722" lon="9.18253">
        <ele>1353.47</ele>
        <time>2015-07-29T06:10:02Z</time>
      </trkpt>
      <trkpt lat="42.02721" lon="9.18277">
        <ele>1352.92</ele>
        <time>2015-07-29T06:09:00Z</time>
      </trkpt>
      <trkpt lat="42.02726" lon="9.18301">
        <ele>1353.49</ele>
        <time>2015-07-29T06:08:46Z</time>
      </trkpt>
      <trkpt lat="42.02717" lon="9.18322">
        <ele>1355.47</ele>
        <time>2015-07-29T06:08:35Z</time>
      </trkpt>
      <trkpt lat="42.02716" lon="9.18347">
        <ele>1342.39</ele>
        <time>2015-07-29T06:08:12Z</time>
      </trkpt>
      <trkpt lat="42.02712" lon="9.18371">
        <ele>1335.67</ele>
        <time>2015-07-29T06:07:35Z</time>
      </trkpt>
      <trkpt lat="42.02714" lon="9.18395">
        <ele>1334.37</ele>
        <time>2015-07-29T06:07:04Z</time>
      </trkpt>
      <trkpt lat="42.02715" lon="9.18419">
        <ele>1328.53</ele>
        <time>2015-07-29T06:06:41Z</time>
      </trkpt>
      <trkpt lat="42.0272" lon="9.18443">
        <ele>1326.71</ele>
        <time>2015-07-29T06:06:20Z</time>
      </trkpt>
      <trkpt lat="42.02726" lon="9.18467">
        <ele>1319.19</ele>
        <time>2015-07-29T06:06:06Z</time>
      </trkpt>
      <trkpt lat="42.02728" lon="9.18493">
        <ele>1318.77</ele>
        <time>2015-07-29T06:05:28Z</time>
      </trkpt>
      <trkpt lat="42.02734" lon="9.18515">
        <ele>1320.3</ele>
        <time>2015-07-29T06:02:50Z</time>
      </trkpt>
      <trkpt lat="42.02743" lon="9.18536">
        <ele>1318.99</ele>
        <time>2015-07-29T06:02:26Z</time>
      </trkpt>
      <trkpt lat="42.0275" lon="9.18558">
        <ele>1312.76</ele>
        <time>2015-07-29T06:02:09Z</time>
      </trkpt>
      <trkpt lat="42.02757" lon="9.18583">
        <ele>1314.88</ele>
        <time>2015-07-29T06:01:52Z</time>
      </trkpt>
      <trkpt lat="42.02765" lon="9.18606">
        <ele>1306.49</ele>
        <time>2015-07-29T06:01:26Z</time>
      </trkpt>
      <trkpt lat="42.02772" lon="9.18628">
        <ele>1303.49</ele>
        <time>2015-07-29T06:01:01Z</time>
      </trkpt>
      <trkpt lat="42.0278" lon="9.18651">
        <ele>1306.05</ele>
        <time>2015-07-29T06:00:44Z</time>
      </trkpt>
      <trkpt lat="42.02791" lon="9.1867">
        <ele>1302.39</ele>
        <time>2015-07-29T06:00:25Z</time>
      </trkpt>
      <trkpt lat="42.028" lon="9.18691">
        <ele>1294</ele>
        <time>2015-07-29T06:00:09Z</time>
      </trkpt>
      <trkpt lat="42.02807" lon="9.18713">
        <ele>1290.65</ele>
        <time>2015-07-29T05:59:13Z</time>
      </trkpt>
      <trkpt lat="42.02813" lon="9.18737">
        <ele>1292.29</ele>
        <time>2015-07-29T05:58:54Z</time>
      </trkpt>
      <trkpt lat="42.02823" lon="9.18759">
        <ele>1289.38</ele>
        <time>2015-07-29T05:58:32Z</time>
      </trkpt>
      <trkpt lat="42.0283" lon="9.18782">
        <ele>1286.53</ele>
        <time>2015-07-29T05:58:16Z</time>
      </trkpt>
      <trkpt lat="42.02838" lon="9.18805">
        <ele>1297.28</ele>
        <time>2015-07-29T05:58:01Z</time>
      </trkpt>
      <trkpt lat="42.02842" lon="9.18829">
        <ele>1293.16</ele>
        <time>2015-07-29T05:57:43Z</time>
      </trkpt>
      <trkpt lat="42.02849" lon="9.18851">
        <ele>1287.79</ele>
        <time>2015-07-29T05:57:24Z</time>
      </trkpt>
      <trkpt lat="42.02856" lon="9.18875">
        <ele>1291.81</ele>
        <time>2015-07-29T05:57:09Z</time>
      </trkpt>
      <trkpt lat="42.02857" lon="9.189">
        <ele>1290.41</ele>
        <time>2015-07-29T05:56:50Z</time>
      </trkpt>
      <trkpt lat="42.02867" lon="9.1892">
        <ele>1280.35</ele>
        <time>2015-07-29T05:56:36Z</time>
      </trkpt>
      <trkpt lat="42.02873" lon="9.18944">
        <ele>1282.82</ele>
        <time>2015-07-29T05:56:15Z</time>
      </trkpt>
      <trkpt lat="42.02878" lon="9.18968">
        <ele>1280.37</ele>
        <time>2015-07-29T05:55:57Z</time>
      </trkpt>
      <trkpt lat="42.02887" lon="9.1899">
        <ele>1281.58</ele>
        <time>2015-07-29T05:55:40Z</time>
      </trkpt>
      <trkpt lat="42.02891" lon="9.19014">
        <ele>1289.72</ele>
        <time>2015-07-29T05:55:26Z</time>
      </trkpt>
      <trkpt lat="42.02904" lon="9.19032">
        <ele>1282.93</ele>
        <time>2015-07-29T05:55:15Z</time>
      </trkpt>
      <trkpt lat="42.02912" lon="9.19055">
        <ele>1286.11</ele>
        <time>2015-07-29T05:55:01Z</time>
      </trkpt>
      <trkpt lat="42.02916" lon="9.19079">
        <ele>1280.83</ele>
        <time>2015-07-29T05:54:40Z</time>
      </trkpt>
      <trkpt lat="42.02923" lon="9.19102">
        <ele>1290.87</ele>
        <time>2015-07-29T05:54:25Z</time>
      </trkpt>
      <trkpt lat="42.02921" lon="9.19128">
        <ele>1291.81</ele>
        <time>2015-07-29T05:54:11Z</time>
      </trkpt>
      <trkpt lat="42.02912" lon="9.1915">
        <ele>1282.71</ele>
        <time>2015-07-29T05:53:57Z</time>
      </trkpt>
      <trkpt lat="42.02907" lon="9.19174">
        <ele>1285.51</ele>
        <time>2015-07-29T05:53:43Z</time>
      </trkpt>
      <trkpt lat="42.02911" lon="9.19199">
        <ele>1293.41</ele>
        <time>2015-07-29T05:53:30Z</time>
      </trkpt>
      <trkpt lat="42.02901" lon="9.1922">
        <ele>1290.65</ele>
        <time>2015-07-29T05:53:16Z</time>
      </trkpt>
      <trkpt lat="42.02898" lon="9.19245">
        <ele>1294.86</ele>
        <time>2015-07-29T05:53:03Z</time>
      </trkpt>
      <trkpt lat="42.0289" lon="9.19267">
        <ele>1293.44</ele>
        <time>2015-07-29T05:52:48Z</time>
      </trkpt>
      <trkpt lat="42.02879" lon="9.19287">
        <ele>1283.9</ele>
        <time>2015-07-29T05:52:30Z</time>
      </trkpt>
      <trkpt lat="42.02869" lon="9.19309">
        <ele>1279.53</ele>
        <time>2015-07-29T05:52:19Z</time>
      </trkpt>
      <trkpt lat="42.0286" lon="9.1933">
        <ele>1284.08</ele>
        <time>2015-07-29T05:52:06Z</time>
      </trkpt>
      <trkpt lat="42.02848" lon="9.19352">
        <ele>1285.91</ele>
        <time>2015-07-29T05:51:49Z</time>
      </trkpt>
      <trkpt lat="42.02836" lon="9.1937">
        <ele>1290.12</ele>
        <time>2015-07-29T05:51:33Z</time>
      </trkpt>
      <trkpt lat="42.02823" lon="9.19388">
        <ele>1290.37</ele>
        <time>2015-07-29T05:51:18Z</time>
      </trkpt>
      <trkpt lat="42.02812" lon="9.19407">
        <ele>1288.35</ele>
        <time>2015-07-29T05:51:02Z</time>
      </trkpt>
      <trkpt lat="42.02794" lon="9.19414">
        <ele>1287.34</ele>
        <time>2015-07-29T05:49:18Z</time>
      </trkpt>
      <trkpt lat="42.02805" lon="9.19433">
        <ele>1289.47</ele>
        <time>2015-07-29T05:42:54Z</time>
      </trkpt>
      <trkpt lat="42.02805" lon="9.19433">
        <ele>1289.47</ele>
        <time>2015-07-29T05:42:54Z</time>
      </trkpt>
    </trkseg>
  </trk>
</gpx>